Data for 11/19/2011

Time Sea-Level Adjusted Pressure Absolute Pressure Temperature Relative Humidity Dew Point Precipitation   
(mb) (inHg) (mb) (inHg) (C) (F) (%) (C) (F) (mm) (in)
00:01 1008 29.77 837 24.72 -13.9 7 71 -18.1 -0.6 -93.9 -3.697
00:02 1008 29.77 837 24.72 -13.9 7 71 -18 -0.5 -93.9 -3.697
00:03 1008 29.77 837 24.72 -13.9 6.9 71 -18.2 -0.7 -94 -3.701
00:04 1008 29.77 837 24.72 -13.9 7 70 -18.3 -0.9 -93.9 -3.697
00:05 1008 29.77 837 24.72 -14 6.9 71 -18.1 -0.6 -93.9 -3.697
00:06 1008 29.77 837 24.72 -13.9 6.9 70 -18.3 -0.9 -93.9 -3.697
00:07 1008 29.77 837 24.72 -14 6.9 70 -18.4 -1.1 -94 -3.701
00:08 1008 29.77 837 24.72 -14 6.9 70 -18.3 -1 -94 -3.701
00:09 1008 29.77 837 24.72 -14 6.9 69 -18.4 -1.2 -93.9 -3.697
00:10 1008 29.77 837 24.72 -14 6.8 70 -18.3 -1 -93.9 -3.697
00:11 1008 29.77 837 24.72 -14 6.8 69 -18.5 -1.3 -93.9 -3.697
00:12 1008 29.77 837 24.72 -14 6.7 70 -18.3 -1 -93.9 -3.697
00:13 1008 29.77 837 24.72 -14 6.7 71 -18.3 -0.9 -93.9 -3.697
00:14 1008 29.77 837 24.72 -14.1 6.7 70 -18.5 -1.2 -93.9 -3.697
00:15 1008 29.77 837 24.72 -14.1 6.6 70 -18.5 -1.3 -94 -3.701
00:16 1008 29.77 837 24.72 -14 6.7 70 -18.3 -1 -94 -3.701
00:17 1008 29.77 837 24.72 -14.1 6.6 70 -18.4 -1.2 -94 -3.701
00:18 1008 29.77 837 24.72 -14.2 6.5 70 -18.5 -1.4 -94 -3.701
00:19 1008 29.77 837 24.72 -14.1 6.6 70 -18.5 -1.3 -94 -3.701
00:20 1008 29.77 837 24.72 -14.2 6.5 70 -18.4 -1.2 -94 -3.701
00:21 1008 29.77 837 24.72 -14.2 6.5 70 -18.5 -1.4 -94 -3.701
00:22 1008 29.77 837 24.72 -14.2 6.5 71 -18.4 -1.1 -94 -3.701
00:23 1008 29.77 837 24.72 -14.2 6.5 70 -18.5 -1.3 -94 -3.701
00:24 1008 29.77 837 24.72 -14.2 6.5 70 -18.5 -1.3 -94 -3.701
00:25 1008 29.77 837 24.72 -14.2 6.4 71 -18.5 -1.2 -94 -3.701
00:26 1008 29.77 837 24.72 -14.2 6.4 71 -18.4 -1.2 -94 -3.701
00:27 1008 29.77 837 24.72 -14.2 6.4 71 -18.5 -1.2 -94 -3.701
00:28 1008 29.77 837 24.72 -14.2 6.4 70 -18.5 -1.3 -94 -3.701
00:29 1008 29.77 837 24.72 -14.2 6.4 70 -18.6 -1.6 -94 -3.701
00:30 1008 29.77 837 24.72 -14.3 6.3 71 -18.5 -1.2 -94 -3.701
00:31 1008 29.77 837 24.72 -14.3 6.3 70 -18.5 -1.4 -94 -3.701
00:32 1008 29.77 837 24.72 -14.3 6.4 70 -18.7 -1.6 -94 -3.701
00:33 1008 29.77 837 24.72 -14.3 6.4 70 -18.6 -1.5 -94 -3.701
00:34 1008 29.77 837 24.72 -14.3 6.3 71 -18.4 -1.2 -94 -3.701
00:35 1008 29.77 837 24.72 -14.3 6.3 70 -18.6 -1.4 -94 -3.701
00:36 1008 29.77 837 24.72 -14.3 6.3 71 -18.5 -1.3 -94 -3.701
00:37 1008 29.77 837 24.72 -14.3 6.2 71 -18.6 -1.4 -94 -3.701
00:38 1008 29.77 837 24.72 -14.3 6.2 71 -18.5 -1.4 -94 -3.701
00:39 1008 29.77 837 24.72 -14.3 6.3 72 -18.4 -1.1 -94 -3.701
00:40 1008 29.77 837 24.72 -14.3 6.2 71 -18.6 -1.5 -94 -3.701
00:41 1008 29.77 837 24.72 -14.3 6.2 71 -18.5 -1.4 -94 -3.701
00:42 1008 29.77 837 24.72 -14.4 6.2 70 -18.8 -1.8 -94 -3.701
00:43 1008 29.77 837 24.72 -14.4 6.2 71 -18.6 -1.4 -94 -3.701
00:44 1008 29.77 837 24.72 -14.4 6.1 70 -18.7 -1.7 -94 -3.701
00:45 1008 29.77 837 24.72 -14.4 6.1 70 -18.7 -1.6 -94 -3.701
00:46 1008 29.77 837 24.72 -14.4 6.2 70 -18.7 -1.7 -94 -3.701
00:47 1008 29.77 837 24.72 -14.4 6.1 70 -18.7 -1.7 -94 -3.701
00:48 1008 29.77 837 24.72 -14.4 6.1 70 -18.8 -1.8 -94 -3.701
00:49 1008 29.77 837 24.72 -14.4 6.1 71 -18.5 -1.3 -94 -3.701
00:50 1008 29.77 837 24.72 -14.4 6.1 70 -18.7 -1.7 -94 -3.701
00:51 1008 29.77 837 24.72 -14.4 6.1 69 -18.9 -1.9 -94 -3.701
00:52 1008 29.77 837 24.72 -14.4 6 71 -18.6 -1.5 -94 -3.701
00:53 1008 29.77 837 24.72 -14.4 6.1 70 -18.7 -1.6 -94 -3.701
00:54 1008 29.77 837 24.72 -14.4 6.1 70 -18.7 -1.7 -94 -3.701
00:55 1008 29.77 837 24.72 -14.4 6 70 -18.8 -1.9 -94 -3.701
00:56 1008 29.77 837 24.72 -14.5 6 70 -18.8 -1.8 -94 -3.701
00:57 1008 29.77 837 24.72 -14.5 6 70 -18.8 -1.9 -94 -3.701
00:58 1008 29.77 837 24.72 -14.5 5.9 70 -18.8 -1.9 -94 -3.701
00:59 1008 29.77 837 24.72 -14.5 6 70 -18.9 -1.9 -94 -3.701
01:00 1008 29.77 837 24.72 -14.5 5.9 70 -18.8 -1.9 -94 -3.701
01:01 1008 29.77 837 24.72 -14.5 5.8 70 -18.9 -2.1 -94 -3.701
01:02 1008 29.77 838 24.75 -14.5 5.8 70 -18.9 -2 -94 -3.701
01:03 1008 29.77 838 24.75 -14.6 5.8 71 -18.7 -1.7 -94 -3.701
01:04 1008 29.77 838 24.75 -14.6 5.8 71 -18.7 -1.7 -94 -3.701
01:05 1008 29.77 838 24.75 -14.6 5.8 71 -18.8 -1.8 -94 -3.701
01:06 1008 29.77 838 24.75 -14.6 5.8 70 -18.9 -2.1 -94 -3.701
01:07 1008 29.77 838 24.75 -14.6 5.7 70 -19 -2.1 -94 -3.701
01:08 1008 29.77 838 24.75 -14.6 5.7 70 -18.9 -2.1 -94 -3.701
01:09 1009 29.8 838 24.75 -14.6 5.8 70 -18.9 -2.1 -94 -3.701
01:10 1009 29.8 838 24.75 -14.6 5.8 70 -18.9 -2 -94 -3.701
01:11 1009 29.8 838 24.75 -14.6 5.7 70 -18.9 -2 -94 -3.701
01:12 1009 29.8 838 24.75 -14.6 5.7 71 -18.8 -1.9 -94 -3.701
01:13 1009 29.8 838 24.75 -14.6 5.7 70 -19 -2.1 -94 -3.701
01:14 1009 29.8 838 24.75 -14.6 5.7 70 -18.9 -2.1 -94 -3.701
01:15 1009 29.8 838 24.75 -14.6 5.7 70 -18.9 -2.1 -94 -3.701
01:16 1009 29.8 838 24.75 -14.6 5.7 71 -18.8 -1.9 -94 -3.701
01:17 1009 29.8 838 24.75 -14.6 5.7 70 -18.9 -2 -94 -3.701
01:18 1009 29.8 838 24.75 -14.6 5.7 70 -19 -2.2 -94 -3.701
01:19 1009 29.8 838 24.75 -14.6 5.7 70 -18.9 -2.1 -94 -3.701
01:20 1009 29.8 838 24.75 -14.6 5.6 70 -18.9 -2.1 -94 -3.701
01:21 1009 29.8 838 24.75 -14.6 5.7 70 -19 -2.2 -94 -3.701
01:22 1009 29.8 838 24.75 -14.6 5.6 71 -18.8 -1.9 -94 -3.701
01:23 1009 29.8 838 24.75 -14.6 5.7 71 -18.8 -1.9 -94 -3.701
01:24 1009 29.8 838 24.75 -14.6 5.7 70 -18.9 -2.1 -94 -3.701
01:25 1009 29.8 838 24.75 -14.6 5.6 70 -18.9 -2.1 -94 -3.701
01:26 1009 29.8 838 24.75 -14.7 5.6 71 -18.9 -2 -94 -3.701
01:27 1009 29.8 838 24.75 -14.7 5.6 71 -18.8 -1.8 -94 -3.701
01:28 1009 29.8 838 24.75 -14.7 5.6 70 -19 -2.1 -94 -3.701
01:29 1009 29.8 838 24.75 -14.7 5.6 71 -18.9 -2 -94 -3.701
01:30 1009 29.8 838 24.75 -14.7 5.6 70 -19 -2.1 -94 -3.701
01:31 1009 29.8 838 24.75 -14.7 5.5 71 -18.9 -2.1 -94 -3.701
01:32 1009 29.8 838 24.75 -14.7 5.5 72 -18.8 -1.8 -94 -3.701
01:33 1009 29.8 838 24.75 -14.7 5.5 71 -18.9 -2 -94 -3.701
01:34 1009 29.8 838 24.75 -14.7 5.5 72 -18.8 -1.9 -94 -3.701
01:35 1009 29.8 838 24.75 -14.7 5.5 72 -18.7 -1.6 -94 -3.701
01:36 1009 29.8 838 24.75 -14.7 5.5 73 -18.6 -1.5 -94 -3.701
01:37 1009 29.8 838 24.75 -14.7 5.5 72 -18.7 -1.6 -94 -3.701
01:38 1009 29.8 838 24.75 -14.7 5.5 71 -18.8 -1.9 -94 -3.701
01:39 1009 29.8 838 24.75 -14.7 5.5 72 -18.8 -1.8 -94 -3.701
01:40 1009 29.8 838 24.75 -14.7 5.5 71 -18.9 -2 -94 -3.701
01:41 1009 29.8 838 24.75 -14.7 5.5 71 -18.8 -1.9 -94 -3.701
01:42 1009 29.8 838 24.75 -14.7 5.5 71 -18.9 -2 -94 -3.701
01:43 1009 29.8 838 24.75 -14.8 5.4 73 -18.7 -1.6 -94 -3.701
01:44 1009 29.8 838 24.75 -14.7 5.5 71 -18.9 -2 -94 -3.701
01:45 1009 29.8 838 24.75 -14.8 5.4 72 -18.8 -1.8 -94 -3.701
01:46 1009 29.8 838 24.75 -14.8 5.4 72 -18.8 -1.8 -94 -3.701
01:47 1009 29.8 838 24.75 -14.8 5.3 71 -19 -2.1 -94 -3.701
01:48 1009 29.8 838 24.75 -14.8 5.4 72 -18.8 -1.9 -94 -3.701
01:49 1009 29.8 838 24.75 -14.8 5.4 71 -19 -2.2 -94 -3.701
01:50 1009 29.8 838 24.75 -14.8 5.3 72 -18.8 -1.9 -94 -3.701
01:51 1009 29.8 839 24.78 -14.8 5.4 72 -18.7 -1.7 -94 -3.701
01:52 1009 29.8 839 24.78 -14.8 5.4 72 -18.8 -1.8 -94 -3.701
01:53 1009 29.8 839 24.78 -14.8 5.4 71 -18.9 -2.1 -94 -3.701
01:54 1009 29.8 838 24.75 -14.8 5.4 72 -18.7 -1.7 -94 -3.701
01:55 1009 29.8 838 24.75 -14.8 5.4 72 -18.7 -1.7 -94 -3.701
01:56 1009 29.8 838 24.75 -14.8 5.4 72 -18.8 -1.9 -94 -3.701
01:57 1009 29.8 838 24.75 -14.8 5.3 72 -18.9 -2 -94 -3.701
01:58 1009 29.8 838 24.75 -14.8 5.3 71 -19 -2.1 -94 -3.701
01:59 1009 29.8 838 24.75 -14.8 5.3 72 -18.8 -1.9 -94 -3.701
02:00 1009 29.8 838 24.75 -14.9 5.3 71 -19 -2.2 -94 -3.701
02:01 1009 29.8 838 24.75 -14.9 5.3 71 -19 -2.2 -94 -3.701
02:02 1009 29.8 838 24.75 -14.9 5.3 71 -19 -2.1 -94 -3.701
02:03 1009 29.8 838 24.75 -14.8 5.3 71 -19 -2.1 -94 -3.701
02:04 1009 29.8 838 24.75 -14.8 5.3 72 -18.8 -1.9 -94 -3.701
02:05 1009 29.8 838 24.75 -14.9 5.3 72 -18.8 -1.9 -94 -3.701
02:06 1009 29.8 838 24.75 -14.9 5.3 72 -18.8 -1.8 -94 -3.701
02:07 1009 29.8 839 24.78 -14.9 5.3 72 -18.9 -1.9 -94 -3.701
02:08 1009 29.8 839 24.78 -14.9 5.2 71 -19 -2.1 -94 -3.701
02:09 1009 29.8 839 24.78 -14.9 5.3 73 -18.8 -1.8 -94 -3.701
02:10 1009 29.8 839 24.78 -14.9 5.2 72 -18.9 -2.1 -94 -3.701
02:11 1010 29.83 839 24.78 -14.9 5.2 71 -19 -2.2 -94 -3.701
02:12 1010 29.83 839 24.78 -14.9 5.1 72 -19 -2.1 -94 -3.701
02:13 1010 29.83 839 24.78 -14.9 5.1 72 -19 -2.1 -94 -3.701
02:14 1010 29.83 839 24.78 -14.9 5.1 72 -18.9 -2 -94 -3.701
02:15 1010 29.83 839 24.78 -14.9 5.1 72 -18.9 -2 -94 -3.701
02:16 1010 29.83 839 24.78 -15 5.1 73 -18.8 -1.9 -94 -3.701
02:17 1010 29.83 839 24.78 -15 5.1 74 -18.7 -1.6 -94 -3.701
02:18 1010 29.83 839 24.78 -15 5.1 73 -18.8 -1.8 -94 -3.701
02:19 1010 29.83 839 24.78 -14.9 5.2 73 -18.8 -1.9 -94 -3.701
02:20 1010 29.83 839 24.78 -14.9 5.1 72 -18.9 -2 -94 -3.701
02:21 1010 29.83 839 24.78 -14.9 5.2 71 -19 -2.2 -94 -3.701
02:22 1010 29.83 839 24.78 -14.9 5.2 72 -18.8 -1.9 -94 -3.701
02:23 1010 29.83 839 24.78 -14.9 5.2 72 -18.9 -2.1 -94 -3.701
02:24 1010 29.83 839 24.78 -14.9 5.3 72 -18.9 -2.1 -94 -3.701
02:25 1010 29.83 839 24.78 -14.9 5.2 72 -18.9 -2.1 -94 -3.701
02:26 1010 29.83 839 24.78 -14.9 5.2 72 -18.9 -2 -94 -3.701
02:27 1010 29.83 839 24.78 -14.9 5.2 72 -18.8 -1.9 -94 -3.701
02:28 1010 29.83 839 24.78 -14.9 5.2 72 -18.9 -2 -94 -3.701
02:29 1010 29.83 839 24.78 -14.9 5.2 72 -19 -2.1 -94 -3.701
02:30 1010 29.83 839 24.78 -14.9 5.2 71 -19 -2.2 -94 -3.701
02:31 1010 29.83 839 24.78 -14.9 5.2 71 -19.1 -2.3 -94 -3.701
02:32 1010 29.83 839 24.78 -14.9 5.1 71 -19.2 -2.5 -94 -3.701
02:33 1010 29.83 839 24.78 -14.9 5.1 71 -19 -2.2 -94 -3.701
02:34 1010 29.83 839 24.78 -14.9 5.1 72 -18.9 -2 -94 -3.701
02:35 1010 29.83 839 24.78 -15 5.1 71 -19.1 -2.3 -94 -3.701
02:36 1010 29.83 839 24.78 -15 5.1 72 -19 -2.2 -94 -3.701
02:37 1010 29.83 839 24.78 -14.9 5.1 71 -19 -2.2 -94 -3.701
02:38 1010 29.83 839 24.78 -15 5 72 -19 -2.2 -94 -3.701
02:39 1010 29.83 839 24.78 -15 5 72 -19 -2.2 -94 -3.701
02:40 1010 29.83 839 24.78 -15 5 72 -19 -2.2 -94 -3.701
02:41 1010 29.83 839 24.78 -15 5 72 -19 -2.1 -94.1 -3.705
02:42 1010 29.83 839 24.78 -15 5 72 -18.9 -2.1 -94.1 -3.705
02:43 1010 29.83 839 24.78 -15 5 73 -18.8 -1.9 -94 -3.701
02:44 1010 29.83 839 24.78 -15 4.9 72 -19.1 -2.3 -94 -3.701
02:45 1010 29.83 839 24.78 -15.1 4.9 73 -18.9 -2 -94 -3.701
02:46 1010 29.83 839 24.78 -15 5 71 -19.1 -2.3 -94 -3.701
02:47 1010 29.83 839 24.78 -15 4.9 72 -19 -2.2 -94 -3.701
02:48 1010 29.83 839 24.78 -15 4.9 73 -18.9 -2 -94 -3.701
02:49 1010 29.83 839 24.78 -15.1 4.9 71 -19.2 -2.5 -94 -3.701
02:50 1010 29.83 839 24.78 -15.1 4.9 71 -19.2 -2.6 -94 -3.701
02:51 1010 29.83 839 24.78 -15.1 4.9 72 -19 -2.2 -94 -3.701
02:52 1010 29.83 839 24.78 -15.1 4.8 72 -19.1 -2.5 -94 -3.701
02:53 1010 29.83 839 24.78 -15.1 4.9 72 -19 -2.2 -94 -3.701
02:54 1010 29.83 839 24.78 -15.1 4.9 72 -19 -2.3 -94.1 -3.705
02:55 1010 29.83 839 24.78 -15.1 4.9 71 -19.2 -2.6 -94.1 -3.705
02:56 1010 29.83 839 24.78 -15.1 4.8 71 -19.2 -2.5 -94.1 -3.705
02:57 1010 29.83 839 24.78 -15.1 4.9 71 -19.2 -2.5 -94.1 -3.705
02:58 1010 29.83 839 24.78 -15.1 4.9 71 -19.2 -2.5 -94.1 -3.705
02:59 1010 29.83 839 24.78 -15.1 4.9 71 -19.2 -2.5 -94.1 -3.705
03:00 1010 29.83 839 24.78 -15.1 4.9 72 -19 -2.2 -94.1 -3.705
03:01 1010 29.83 839 24.78 -15.1 4.9 71 -19.2 -2.5 -94.1 -3.705
03:02 1010 29.83 839 24.78 -15.1 4.8 72 -19.1 -2.5 -94.1 -3.705
03:03 1010 29.83 839 24.78 -15.1 4.9 71 -19.2 -2.5 -94.1 -3.705
03:04 1010 29.83 839 24.78 -15.1 4.8 71 -19.2 -2.6 -94.1 -3.705
03:05 1010 29.83 839 24.78 -15.1 4.8 72 -19.1 -2.3 -94.1 -3.705
03:06 1010 29.83 839 24.78 -15.1 4.8 71 -19.2 -2.6 -94.1 -3.705
03:07 1010 29.83 839 24.78 -15.1 4.8 72 -19.1 -2.5 -94.1 -3.705
03:08 1010 29.83 839 24.78 -15.1 4.8 72 -19.1 -2.4 -94.1 -3.705
03:09 1010 29.83 839 24.78 -15.1 4.7 72 -19.1 -2.4 -94.1 -3.705
03:10 1010 29.83 839 24.78 -15.1 4.7 72 -19.2 -2.5 -94.1 -3.705
03:11 1010 29.83 839 24.78 -15.1 4.7 73 -19 -2.3 -94.1 -3.705
03:12 1010 29.83 839 24.78 -15.2 4.7 73 -19 -2.2 -94.1 -3.705
03:13 1010 29.83 839 24.78 -15.2 4.7 72 -19.1 -2.4 -94.1 -3.705
03:14 1010 29.83 839 24.78 -15.2 4.6 72 -19.1 -2.5 -94.1 -3.705
03:15 1010 29.83 839 24.78 -15.2 4.6 73 -19 -2.2 -94.1 -3.705
03:16 1010 29.83 839 24.78 -15.2 4.6 74 -18.9 -2 -94.1 -3.705
03:17 1010 29.83 839 24.78 -15.2 4.7 73 -19 -2.3 -94 -3.701
03:18 1010 29.83 839 24.78 -15.2 4.7 73 -18.9 -2.1 -94.1 -3.705
03:19 1010 29.83 840 24.81 -15.2 4.6 73 -19.1 -2.4 -94.1 -3.705
03:20 1010 29.83 840 24.81 -15.2 4.6 73 -19 -2.2 -94.1 -3.705
03:21 1010 29.83 840 24.81 -15.2 4.6 74 -18.9 -2.1 -94.1 -3.705
03:22 1010 29.83 840 24.81 -15.2 4.6 73 -19 -2.2 -94.1 -3.705
03:23 1010 29.83 840 24.81 -15.2 4.6 73 -19 -2.2 -94.1 -3.705
03:24 1010 29.83 840 24.81 -15.2 4.6 74 -18.9 -2 -94.1 -3.705
03:25 1010 29.83 839 24.78 -15.2 4.6 74 -18.9 -2 -94.1 -3.705
03:26 1010 29.83 840 24.81 -15.2 4.6 73 -19 -2.2 -94.1 -3.705
03:27 1010 29.83 840 24.81 -15.3 4.6 72 -19.2 -2.5 -94.1 -3.705
03:28 1010 29.83 840 24.81 -15.3 4.5 73 -19.1 -2.4 -94.1 -3.705
03:29 1010 29.83 840 24.81 -15.3 4.5 74 -19 -2.1 -94.1 -3.705
03:30 1010 29.83 840 24.81 -15.3 4.5 73 -19.1 -2.4 -94.1 -3.705
03:31 1010 29.83 840 24.81 -15.3 4.5 73 -19 -2.2 -94.1 -3.705
03:32 1010 29.83 840 24.81 -15.3 4.5 73 -19.1 -2.4 -94.1 -3.705
03:33 1010 29.83 840 24.81 -15.3 4.5 74 -19 -2.1 -94.1 -3.705
03:34 1010 29.83 840 24.81 -15.3 4.5 73 -19 -2.2 -94.1 -3.705
03:35 1010 29.83 840 24.81 -15.3 4.5 73 -19.1 -2.4 -94.1 -3.705
03:36 1010 29.83 840 24.81 -15.3 4.5 73 -19.1 -2.4 -94.1 -3.705
03:37 1011 29.85 840 24.81 -15.3 4.5 73 -19.2 -2.5 -94.1 -3.705
03:38 1011 29.85 840 24.81 -15.3 4.5 74 -19 -2.2 -94.1 -3.705
03:39 1011 29.85 840 24.81 -15.3 4.5 73 -19 -2.2 -94.1 -3.705
03:40 1011 29.85 840 24.81 -15.3 4.5 73 -19.2 -2.5 -94.1 -3.705
03:41 1011 29.85 840 24.81 -15.3 4.5 73 -19.1 -2.3 -94.1 -3.705
03:42 1011 29.85 840 24.81 -15.3 4.4 74 -18.9 -2 -94.1 -3.705
03:43 1011 29.85 840 24.81 -15.3 4.5 74 -18.9 -2 -94.1 -3.705
03:44 1011 29.85 840 24.81 -15.3 4.5 74 -19 -2.2 -94.1 -3.705
03:45 1011 29.85 840 24.81 -15.3 4.5 73 -19.1 -2.4 -94.1 -3.705
03:46 1011 29.85 840 24.81 -15.3 4.5 74 -19 -2.2 -94.1 -3.705
03:47 1011 29.85 840 24.81 -15.3 4.5 73 -19.1 -2.4 -94.1 -3.705
03:48 1011 29.85 840 24.81 -15.3 4.4 74 -18.9 -2.1 -94.1 -3.705
03:49 1011 29.85 840 24.81 -15.3 4.5 74 -19 -2.1 -94.1 -3.705
03:50 1011 29.85 840 24.81 -15.3 4.5 74 -19 -2.2 -94.1 -3.705
03:51 1011 29.85 840 24.81 -15.3 4.5 74 -19 -2.2 -94.1 -3.705
03:52 1011 29.85 840 24.81 -15.3 4.5 74 -18.9 -2 -94.1 -3.705
03:53 1011 29.85 840 24.81 -15.3 4.4 73 -19.1 -2.4 -94.1 -3.705
03:54 1011 29.85 840 24.81 -15.3 4.5 74 -19 -2.2 -94.1 -3.705
03:55 1011 29.85 840 24.81 -15.4 4.3 73 -19.1 -2.4 -94.1 -3.705
03:56 1011 29.85 840 24.81 -15.3 4.4 74 -19 -2.3 -94.1 -3.705
03:57 1011 29.85 840 24.81 -15.4 4.4 73 -19.1 -2.4 -94.1 -3.705
03:58 1011 29.85 840 24.81 -15.4 4.4 74 -18.9 -2.1 -94.1 -3.705
03:59 1011 29.85 840 24.81 -15.3 4.4 74 -19 -2.2 -94.1 -3.705
04:00 1011 29.85 840 24.81 -15.3 4.5 74 -18.9 -2.1 -94.1 -3.705
04:01 1011 29.85 840 24.81 -15.3 4.4 73 -19.1 -2.4 -94.1 -3.705
04:02 1011 29.85 840 24.81 -15.3 4.4 74 -19 -2.1 -94.1 -3.705
04:03 1011 29.85 840 24.81 -15.3 4.5 74 -19 -2.2 -94.1 -3.705
04:04 1011 29.85 840 24.81 -15.3 4.4 74 -19 -2.2 -94.1 -3.705
04:05 1011 29.85 840 24.81 -15.3 4.5 74 -18.9 -2.1 -94.1 -3.705
04:06 1011 29.85 840 24.81 -15.3 4.5 74 -19 -2.2 -94.1 -3.705
04:07 1011 29.85 840 24.81 -15.3 4.5 73 -19 -2.2 -94.1 -3.705
04:08 1011 29.85 840 24.81 -15.3 4.5 73 -19 -2.2 -94.1 -3.705
04:09 1011 29.85 840 24.81 -15.3 4.5 73 -19 -2.2 -94.1 -3.705
04:10 1011 29.85 840 24.81 -15.2 4.6 73 -19 -2.1 -94.1 -3.705
04:11 1011 29.85 840 24.81 -15.3 4.5 73 -19.1 -2.3 -94.1 -3.705
04:12 1011 29.85 840 24.81 -15.2 4.6 74 -18.8 -1.8 -94.1 -3.705
04:13 1011 29.85 840 24.81 -15.2 4.6 74 -19 -2.1 -94.1 -3.705
04:14 1011 29.85 840 24.81 -15.2 4.6 74 -18.8 -1.9 -94.1 -3.705
04:15 1011 29.85 840 24.81 -15.2 4.6 74 -18.9 -2 -94.1 -3.705
04:16 1011 29.85 840 24.81 -15.2 4.6 73 -19 -2.1 -94.1 -3.705
04:17 1011 29.85 840 24.81 -15.2 4.6 74 -18.8 -1.9 -94.1 -3.705
04:18 1011 29.85 840 24.81 -15.2 4.7 75 -18.7 -1.7 -94.1 -3.705
04:19 1011 29.85 840 24.81 -15.2 4.6 74 -18.8 -1.9 -94.1 -3.705
04:20 1011 29.85 840 24.81 -15.2 4.6 74 -18.8 -1.9 -94.1 -3.705
04:21 1011 29.85 840 24.81 -15.2 4.6 75 -18.7 -1.7 -94.1 -3.705
04:22 1011 29.85 840 24.81 -15.2 4.6 75 -18.7 -1.7 -94.1 -3.705
04:23 1011 29.85 840 24.81 -15.2 4.6 75 -18.8 -1.8 -94.1 -3.705
04:24 1011 29.85 840 24.81 -15.2 4.6 75 -18.8 -1.8 -94.1 -3.705
04:25 1011 29.85 840 24.81 -15.3 4.6 74 -18.9 -2.1 -94.1 -3.705
04:26 1011 29.85 840 24.81 -15.3 4.5 75 -18.9 -1.9 -94.1 -3.705
04:27 1011 29.85 840 24.81 -15.3 4.5 74 -18.9 -2 -94.1 -3.705
04:28 1011 29.85 840 24.81 -15.3 4.5 74 -18.9 -2 -94.1 -3.705
04:29 1011 29.85 840 24.81 -15.3 4.4 74 -19 -2.1 -94.1 -3.705
04:30 1011 29.85 840 24.81 -15.3 4.4 74 -18.9 -2 -94.1 -3.705
04:31 1011 29.85 840 24.81 -15.3 4.4 74 -19 -2.2 -94.1 -3.705
04:32 1011 29.85 840 24.81 -15.3 4.4 74 -19 -2.3 -94.1 -3.705
04:33 1011 29.85 840 24.81 -15.3 4.4 73 -19.1 -2.4 -94.1 -3.705
04:34 1011 29.85 840 24.81 -15.3 4.4 73 -19.1 -2.4 -94.1 -3.705
04:35 1011 29.85 840 24.81 -15.3 4.4 74 -19 -2.2 -94.1 -3.705
04:36 1011 29.85 840 24.81 -15.3 4.4 75 -18.9 -2 -94.1 -3.705
04:37 1011 29.85 840 24.81 -15.3 4.4 75 -18.8 -1.9 -94.1 -3.705
04:38 1011 29.85 840 24.81 -15.3 4.4 75 -18.9 -1.9 -94.1 -3.705
04:39 1011 29.85 841 24.83 -15.3 4.4 75 -18.9 -1.9 -94.1 -3.705
04:40 1011 29.85 841 24.83 -15.4 4.4 74 -19.1 -2.3 -94.1 -3.705
04:41 1011 29.85 841 24.83 -15.4 4.4 73 -19.1 -2.4 -94.1 -3.705
04:42 1011 29.85 840 24.81 -15.3 4.4 73 -19.1 -2.5 -94.1 -3.705
04:43 1011 29.85 840 24.81 -15.4 4.4 73 -19.1 -2.4 -94.1 -3.705
04:44 1011 29.85 841 24.83 -15.4 4.3 73 -19.1 -2.5 -94.1 -3.705
04:45 1011 29.85 840 24.81 -15.4 4.4 73 -19.2 -2.5 -94.1 -3.705
04:46 1011 29.85 840 24.81 -15.4 4.3 73 -19.3 -2.7 -94.1 -3.705
04:47 1011 29.85 840 24.81 -15.4 4.2 72 -19.3 -2.8 -94.1 -3.705
04:48 1011 29.85 841 24.83 -15.4 4.2 73 -19.2 -2.5 -94.1 -3.705
04:49 1011 29.85 841 24.83 -15.4 4.2 74 -19.2 -2.5 -94.1 -3.705
04:50 1011 29.85 841 24.83 -15.5 4.2 73 -19.2 -2.6 -94.1 -3.705
04:51 1011 29.85 841 24.83 -15.4 4.2 74 -19.2 -2.5 -94.1 -3.705
04:52 1011 29.85 841 24.83 -15.4 4.2 73 -19.2 -2.6 -94.1 -3.705
04:53 1011 29.85 841 24.83 -15.4 4.3 74 -19 -2.2 -94.1 -3.705
04:54 1011 29.85 841 24.83 -15.4 4.3 74 -19.1 -2.3 -94.1 -3.705
04:55 1011 29.85 841 24.83 -15.4 4.2 73 -19.2 -2.6 -94.1 -3.705
04:56 1011 29.85 841 24.83 -15.4 4.3 73 -19.1 -2.4 -94.1 -3.705
04:57 1011 29.85 841 24.83 -15.4 4.3 73 -19.2 -2.6 -94.1 -3.705
04:58 1011 29.85 841 24.83 -15.4 4.3 74 -19 -2.3 -94.1 -3.705
04:59 1011 29.85 841 24.83 -15.4 4.3 73 -19.1 -2.5 -94.1 -3.705
05:00 1011 29.85 841 24.83 -15.4 4.3 73 -19.2 -2.5 -94.1 -3.705
05:01 1011 29.85 841 24.83 -15.4 4.3 73 -19.1 -2.4 -94.1 -3.705
05:02 1011 29.85 841 24.83 -15.4 4.2 73 -19.3 -2.7 -94.1 -3.705
05:03 1011 29.85 841 24.83 -15.4 4.3 72 -19.3 -2.8 -94.1 -3.705
05:04 1012 29.88 841 24.83 -15.4 4.2 72 -19.4 -2.9 -94.1 -3.705
05:05 1012 29.88 841 24.83 -15.4 4.3 73 -19.2 -2.5 -94.1 -3.705
05:06 1012 29.88 841 24.83 -15.4 4.3 73 -19.2 -2.6 -94.1 -3.705
05:07 1012 29.88 841 24.83 -15.4 4.3 73 -19.2 -2.5 -94.1 -3.705
05:08 1012 29.88 841 24.83 -15.4 4.3 73 -19.1 -2.5 -94.1 -3.705
05:09 1012 29.88 841 24.83 -15.4 4.3 73 -19.3 -2.7 -94.1 -3.705
05:10 1012 29.88 841 24.83 -15.4 4.3 73 -19.2 -2.6 -94.1 -3.705
05:11 1012 29.88 841 24.83 -15.4 4.3 73 -19.2 -2.6 -94.1 -3.705
05:12 1012 29.88 841 24.83 -15.4 4.3 73 -19.2 -2.5 -94.1 -3.705
05:13 1012 29.88 841 24.83 -15.4 4.4 73 -19.2 -2.5 -94.1 -3.705
05:14 1012 29.88 841 24.83 -15.4 4.4 74 -19.1 -2.3 -94.1 -3.705
05:15 1012 29.88 841 24.83 -15.4 4.4 73 -19.2 -2.6 -94.1 -3.705
05:16 1012 29.88 841 24.83 -15.3 4.5 73 -19 -2.3 -94.1 -3.705
05:17 1012 29.88 841 24.83 -15.3 4.4 74 -19 -2.2 -94.1 -3.705
05:18 1012 29.88 841 24.83 -15.3 4.4 74 -19 -2.2 -94.1 -3.705
05:19 1012 29.88 841 24.83 -15.3 4.4 73 -19.2 -2.5 -94.1 -3.705
05:20 1012 29.88 841 24.83 -15.3 4.5 74 -19 -2.2 -94.1 -3.705
05:21 1012 29.88 841 24.83 -15.3 4.5 74 -18.9 -2.1 -94.1 -3.705
05:22 1012 29.88 841 24.83 -15.3 4.5 73 -19.1 -2.3 -94.1 -3.705
05:23 1012 29.88 841 24.83 -15.3 4.5 74 -19 -2.2 -94.1 -3.705
05:24 1012 29.88 841 24.83 -15.3 4.4 74 -19 -2.2 -94.1 -3.705
05:25 1012 29.88 841 24.83 -15.3 4.4 73 -19.1 -2.3 -94.1 -3.705
05:26 1012 29.88 841 24.83 -15.3 4.5 73 -19 -2.3 -94.1 -3.705
05:27 1012 29.88 841 24.83 -15.3 4.4 74 -19 -2.1 -94.1 -3.705
05:28 1012 29.88 841 24.83 -15.3 4.4 73 -19.1 -2.3 -94.1 -3.705
05:29 1012 29.88 841 24.83 -15.3 4.5 73 -19.1 -2.4 -94.1 -3.705
05:30 1012 29.88 841 24.83 -15.3 4.4 74 -19 -2.2 -94.1 -3.705
05:31 1012 29.88 841 24.83 -15.3 4.4 73 -19.1 -2.4 -94.1 -3.705
05:32 1012 29.88 841 24.83 -15.3 4.4 74 -19 -2.2 -94.1 -3.705
05:33 1012 29.88 841 24.83 -15.3 4.4 74 -19 -2.2 -94.1 -3.705
05:34 1012 29.88 841 24.83 -15.4 4.4 75 -18.8 -1.9 -94.1 -3.705
05:35 1012 29.88 841 24.83 -15.3 4.4 74 -18.9 -2 -94.1 -3.705
05:36 1012 29.88 841 24.83 -15.3 4.4 74 -19 -2.3 -94.1 -3.705
05:37 1012 29.88 841 24.83 -15.3 4.5 73 -19.1 -2.3 -94.1 -3.705
05:38 1012 29.88 841 24.83 -15.3 4.5 73 -19.2 -2.5 -94.1 -3.705
05:39 1012 29.88 841 24.83 -15.3 4.4 73 -19.1 -2.3 -94.1 -3.705
05:40 1012 29.88 841 24.83 -15.3 4.4 75 -18.9 -1.9 -94.1 -3.705
05:41 1012 29.88 841 24.83 -15.3 4.4 74 -19 -2.3 -94.1 -3.705
05:42 1012 29.88 841 24.83 -15.3 4.4 74 -19 -2.3 -94.1 -3.705
05:43 1012 29.88 841 24.83 -15.4 4.4 73 -19.2 -2.5 -94.1 -3.705
05:44 1012 29.88 841 24.83 -15.3 4.4 74 -19 -2.2 -94.1 -3.705
05:45 1012 29.88 841 24.83 -15.3 4.4 74 -19 -2.2 -94.1 -3.705
05:46 1012 29.88 841 24.83 -15.3 4.4 73 -19.1 -2.3 -94.1 -3.705
05:47 1012 29.88 841 24.83 -15.3 4.4 73 -19.1 -2.4 -94.1 -3.705
05:48 1012 29.88 841 24.83 -15.3 4.4 73 -19.1 -2.3 -94.1 -3.705
05:49 1012 29.88 841 24.83 -15.3 4.5 74 -19 -2.2 -94.1 -3.705
05:50 1012 29.88 841 24.83 -15.3 4.5 74 -19 -2.2 -94.1 -3.705
05:51 1012 29.88 841 24.83 -15.3 4.5 73 -19.1 -2.4 -94.1 -3.705
05:52 1012 29.88 841 24.83 -15.3 4.5 73 -19.1 -2.3 -94.1 -3.705
05:53 1012 29.88 841 24.83 -15.3 4.6 73 -19.1 -2.4 -94.1 -3.705
05:54 1012 29.88 841 24.83 -15.2 4.6 73 -19.1 -2.3 -94.1 -3.705
05:55 1012 29.88 841 24.83 -15.2 4.6 73 -19 -2.2 -94.1 -3.705
05:56 1012 29.88 841 24.83 -15.2 4.6 74 -18.9 -2 -94.1 -3.705
05:57 1012 29.88 841 24.83 -15.2 4.6 74 -18.9 -2 -94.1 -3.705
05:58 1012 29.88 841 24.83 -15.2 4.7 74 -18.9 -2 -94.1 -3.705
05:59 1012 29.88 841 24.83 -15.2 4.6 74 -18.9 -2.1 -94.1 -3.705
06:00 1012 29.88 841 24.83 -15.2 4.6 74 -18.9 -2.1 -94.1 -3.705
06:01 1012 29.88 841 24.83 -15.2 4.6 74 -18.8 -1.9 -94.1 -3.705
06:02 1012 29.88 841 24.83 -15.2 4.7 74 -18.8 -1.8 -94.1 -3.705
06:03 1012 29.88 841 24.83 -15.2 4.6 74 -18.8 -1.8 -94.1 -3.705
06:04 1012 29.88 841 24.83 -15.2 4.7 74 -18.8 -1.9 -94.1 -3.705
06:05 1012 29.88 841 24.83 -15.2 4.7 74 -18.8 -1.8 -94.1 -3.705
06:06 1012 29.88 841 24.83 -15.2 4.7 74 -18.8 -1.9 -94.1 -3.705
06:07 1012 29.88 841 24.83 -15.2 4.6 74 -18.8 -1.9 -94.1 -3.705
06:08 1012 29.88 841 24.83 -15.2 4.7 74 -18.8 -1.9 -94.1 -3.705
06:09 1012 29.88 841 24.83 -15.2 4.7 74 -18.8 -1.8 -94.1 -3.705
06:10 1012 29.88 841 24.83 -15.2 4.7 74 -18.8 -1.8 -94.1 -3.705
06:11 1012 29.88 841 24.83 -15.2 4.6 74 -18.8 -1.8 -94.1 -3.705
06:12 1012 29.88 841 24.83 -15.2 4.6 75 -18.8 -1.8 -94.1 -3.705
06:13 1012 29.88 841 24.83 -15.2 4.7 74 -18.8 -1.8 -94.1 -3.705
06:14 1012 29.88 841 24.83 -15.2 4.6 74 -18.8 -1.8 -94.1 -3.705
06:15 1012 29.88 841 24.83 -15.3 4.6 75 -18.8 -1.8 -94.1 -3.705
06:16 1012 29.88 841 24.83 -15.3 4.5 76 -18.7 -1.6 -94.1 -3.705
06:17 1012 29.88 841 24.83 -15.3 4.5 76 -18.7 -1.7 -94.1 -3.705
06:18 1012 29.88 841 24.83 -15.3 4.5 76 -18.7 -1.6 -94.1 -3.705
06:19 1012 29.88 842 24.86 -15.3 4.5 76 -18.6 -1.5 -94.1 -3.705
06:20 1012 29.88 842 24.86 -15.3 4.4 76 -18.7 -1.6 -94.1 -3.705
06:21 1012 29.88 842 24.86 -15.3 4.5 76 -18.6 -1.5 -94.1 -3.705
06:22 1012 29.88 842 24.86 -15.3 4.5 76 -18.6 -1.5 -94 -3.701
06:23 1012 29.88 842 24.86 -15.3 4.5 77 -18.5 -1.3 -94 -3.701
06:24 1012 29.88 842 24.86 -15.3 4.5 77 -18.5 -1.2 -94 -3.701
06:25 1012 29.88 842 24.86 -15.3 4.4 77 -18.5 -1.3 -94 -3.701
06:26 1012 29.88 842 24.86 -15.3 4.5 77 -18.5 -1.3 -94 -3.701
06:27 1012 29.88 842 24.86 -15.3 4.5 77 -18.5 -1.2 -94 -3.701
06:28 1012 29.88 842 24.86 -15.3 4.4 77 -18.5 -1.3 -94.1 -3.705
06:29 1012 29.88 842 24.86 -15.4 4.4 77 -18.5 -1.2 -94 -3.701
06:30 1012 29.88 842 24.86 -15.4 4.3 78 -18.5 -1.2 -94.1 -3.705
06:31 1012 29.88 842 24.86 -15.4 4.3 78 -18.4 -1.1 -94.1 -3.705
06:32 1012 29.88 842 24.86 -15.4 4.3 78 -18.4 -1.1 -94.1 -3.705
06:33 1012 29.88 842 24.86 -15.4 4.2 79 -18.4 -1 -94.1 -3.705
06:34 1012 29.88 842 24.86 -15.4 4.2 79 -18.3 -0.9 -94.1 -3.705
06:35 1013 29.91 842 24.86 -15.4 4.3 79 -18.3 -0.9 -94.1 -3.705
06:36 1013 29.91 842 24.86 -15.4 4.3 79 -18.2 -0.8 -94.1 -3.705
06:37 1013 29.91 842 24.86 -15.4 4.3 81 -18 -0.4 -94.1 -3.705
06:38 1013 29.91 842 24.86 -15.4 4.2 82 -17.8 -0 -94.1 -3.705
06:39 1013 29.91 842 24.86 -15.5 4.1 84 -17.7 0.2 -94.1 -3.705
06:40 1013 29.91 842 24.86 -15.5 4.1 84 -17.6 0.3 -94 -3.701
06:41 1013 29.91 842 24.86 -15.5 4.1 84 -17.6 0.4 -94 -3.701
06:42 1013 29.91 842 24.86 -15.5 4 85 -17.6 0.4 -94 -3.701
06:43 1013 29.91 842 24.86 -15.6 4 85 -17.5 0.4 -94 -3.701
06:44 1013 29.91 842 24.86 -15.6 3.9 85 -17.5 0.5 -94 -3.701
06:45 1013 29.91 842 24.86 -15.6 3.9 86 -17.5 0.5 -94 -3.701
06:46 1013 29.91 842 24.86 -15.6 3.9 86 -17.5 0.5 -94 -3.701
06:47 1013 29.91 842 24.86 -15.6 3.9 86 -17.5 0.5 -94 -3.701
06:48 1013 29.91 842 24.86 -15.6 3.9 86 -17.4 0.6 -94 -3.701
06:49 1013 29.91 842 24.86 -15.6 3.9 86 -17.5 0.6 -94 -3.701
06:50 1013 29.91 842 24.86 -15.6 3.9 86 -17.5 0.5 -94 -3.701
06:51 1013 29.91 842 24.86 -15.6 3.9 86 -17.5 0.5 -94 -3.701
06:52 1013 29.91 842 24.86 -15.6 3.9 86 -17.5 0.5 -94 -3.701
06:53 1013 29.91 842 24.86 -15.7 3.8 86 -17.5 0.4 -94 -3.701
06:54 1013 29.91 842 24.86 -15.7 3.8 86 -17.5 0.5 -94 -3.701
06:55 1013 29.91 842 24.86 -15.7 3.8 86 -17.5 0.5 -94 -3.701
06:56 1013 29.91 842 24.86 -15.7 3.7 86 -17.5 0.4 -94 -3.701
06:57 1013 29.91 842 24.86 -15.7 3.7 86 -17.5 0.4 -94 -3.701
06:58 1013 29.91 842 24.86 -15.8 3.7 86 -17.6 0.4 -94 -3.701
06:59 1013 29.91 842 24.86 -15.8 3.6 86 -17.6 0.4 -94 -3.701
07:00 1013 29.91 842 24.86 -15.8 3.6 86 -17.6 0.4 -94 -3.701
07:01 1013 29.91 842 24.86 -15.8 3.6 86 -17.6 0.4 -94 -3.701
07:02 1013 29.91 842 24.86 -15.8 3.5 86 -17.6 0.3 -94 -3.701
07:03 1013 29.91 842 24.86 -15.8 3.5 86 -17.6 0.3 -94 -3.701
07:04 1013 29.91 842 24.86 -15.8 3.5 86 -17.6 0.3 -94 -3.701
07:05 1013 29.91 842 24.86 -15.8 3.5 86 -17.6 0.3 -94 -3.701
07:06 1013 29.91 842 24.86 -15.9 3.4 86 -17.7 0.2 -94 -3.701
07:07 1013 29.91 842 24.86 -15.9 3.5 86 -17.7 0.2 -94 -3.701
07:08 1013 29.91 842 24.86 -15.9 3.3 86 -17.7 0.1 -94 -3.701
07:09 1013 29.91 842 24.86 -15.9 3.3 86 -17.8 0 -94 -3.701
07:10 1013 29.91 842 24.86 -16 3.3 86 -17.8 0 -94 -3.701
07:11 1013 29.91 842 24.86 -16 3.3 87 -17.7 0.1 -94 -3.701
07:12 1013 29.91 842 24.86 -16 3.2 87 -17.7 0.1 -94 -3.701
07:13 1013 29.91 842 24.86 -16 3.2 87 -17.8 0 -94 -3.701
07:14 1013 29.91 842 24.86 -16 3.2 86 -17.8 -0 -94 -3.701
07:15 1013 29.91 842 24.86 -16.1 3.1 86 -17.8 -0.1 -94 -3.701
07:16 1013 29.91 842 24.86 -16.1 3 86 -17.9 -0.2 -94 -3.701
07:17 1013 29.91 842 24.86 -16.1 3 86 -17.9 -0.1 -94 -3.701
07:18 1013 29.91 842 24.86 -16.1 3 87 -17.8 -0.1 -94 -3.701
07:19 1013 29.91 842 24.86 -16.2 2.9 87 -17.8 -0.1 -94 -3.701
07:20 1013 29.91 842 24.86 -16.1 3 87 -17.8 -0 -94 -3.701
07:21 1013 29.91 842 24.86 -16.2 2.9 87 -17.8 -0.1 -94 -3.701
07:22 1013 29.91 842 24.86 -16.2 2.9 87 -17.9 -0.2 -94 -3.701
07:23 1013 29.91 842 24.86 -16.2 2.8 87 -17.9 -0.3 -94 -3.701
07:24 1013 29.91 842 24.86 -16.3 2.7 86 -18 -0.5 -94 -3.701
07:25 1013 29.91 842 24.86 -16.4 2.6 86 -18.1 -0.6 -94 -3.701
07:26 1013 29.91 842 24.86 -16.4 2.5 86 -18.2 -0.7 -94 -3.701
07:27 1013 29.91 842 24.86 -16.5 2.4 86 -18.3 -0.9 -94 -3.701
07:28 1013 29.91 842 24.86 -16.5 2.3 87 -18.2 -0.8 -94 -3.701
07:29 1013 29.91 842 24.86 -16.5 2.3 87 -18.2 -0.8 -94 -3.701
07:30 1013 29.91 842 24.86 -16.5 2.2 87 -18.2 -0.7 -94 -3.701
07:31 1013 29.91 842 24.86 -16.5 2.3 88 -18 -0.4 -94 -3.701
07:32 1013 29.91 842 24.86 -16.4 2.5 88 -18 -0.4 -94.1 -3.705
07:33 1013 29.91 842 24.86 -16.4 2.5 87 -18.1 -0.5 -94.1 -3.705
07:34 1013 29.91 842 24.86 -16.4 2.5 87 -18.1 -0.5 -94.1 -3.705
07:35 1013 29.91 842 24.86 -16.4 2.5 88 -17.9 -0.3 -94.1 -3.705
07:36 1013 29.91 842 24.86 -16.4 2.6 88 -17.9 -0.2 -94.1 -3.705
07:37 1013 29.91 842 24.86 -16.3 2.7 88 -17.8 -0.1 -94 -3.701
07:38 1013 29.91 842 24.86 -16.3 2.7 88 -17.8 -0.1 -94 -3.701
07:39 1013 29.91 842 24.86 -16.3 2.7 88 -17.9 -0.2 -94.1 -3.705
07:40 1013 29.91 842 24.86 -16.3 2.7 87 -17.9 -0.2 -94.1 -3.705
07:41 1013 29.91 842 24.86 -16.3 2.7 87 -17.9 -0.3 -94.1 -3.705
07:42 1013 29.91 842 24.86 -16.3 2.6 87 -18 -0.4 -94.1 -3.705
07:43 1013 29.91 842 24.86 -16.4 2.5 87 -18.1 -0.5 -94.1 -3.705
07:44 1013 29.91 842 24.86 -16.4 2.5 87 -18.1 -0.5 -94.1 -3.705
07:45 1013 29.91 842 24.86 -16.4 2.4 87 -18.1 -0.6 -94.1 -3.705
07:46 1013 29.91 842 24.86 -16.4 2.4 87 -18.1 -0.6 -94.1 -3.705
07:47 1013 29.91 842 24.86 -16.5 2.4 87 -18.1 -0.7 -94.1 -3.705
07:48 1013 29.91 842 24.86 -16.5 2.3 87 -18.1 -0.6 -94.1 -3.705
07:49 1013 29.91 842 24.86 -16.5 2.4 87 -18.1 -0.6 -94.1 -3.705
07:50 1013 29.91 842 24.86 -16.5 2.3 87 -18.1 -0.6 -94.1 -3.705
07:51 1013 29.91 842 24.86 -16.5 2.3 88 -18.1 -0.5 -94.1 -3.705
07:52 1013 29.91 842 24.86 -16.5 2.4 88 -18.1 -0.6 -94.1 -3.705
07:53 1013 29.91 842 24.86 -16.5 2.4 87 -18.1 -0.5 -94.1 -3.705
07:54 1013 29.91 842 24.86 -16.5 2.4 87 -18.1 -0.6 -94.1 -3.705
07:55 1013 29.91 842 24.86 -16.5 2.3 87 -18.1 -0.6 -94.1 -3.705
07:56 1013 29.91 842 24.86 -16.5 2.4 88 -18.1 -0.5 -94.1 -3.705
07:57 1013 29.91 842 24.86 -16.4 2.4 88 -18 -0.5 -94.1 -3.705
07:58 1013 29.91 842 24.86 -16.4 2.4 88 -18 -0.5 -94.1 -3.705
07:59 1013 29.91 842 24.86 -16.4 2.4 88 -18 -0.5 -94.1 -3.705
08:00 1013 29.91 842 24.86 -16.4 2.4 87 -18 -0.5 -94.1 -3.705
08:01 1013 29.91 842 24.86 -16.4 2.5 87 -18.1 -0.5 -94.1 -3.705
08:02 1013 29.91 842 24.86 -16.4 2.5 87 -18 -0.4 -94.1 -3.705
08:03 1013 29.91 842 24.86 -16.4 2.5 87 -18 -0.5 -94.1 -3.705
08:04 1013 29.91 842 24.86 -16.4 2.6 87 -18 -0.4 -94.1 -3.705
08:05 1013 29.91 842 24.86 -16.3 2.6 87 -18 -0.4 -94.1 -3.705
08:06 1013 29.91 842 24.86 -16.3 2.6 87 -18 -0.4 -94.1 -3.705
08:07 1013 29.91 842 24.86 -16.3 2.7 87 -17.9 -0.3 -94.1 -3.705
08:08 1013 29.91 842 24.86 -16.3 2.6 87 -17.9 -0.3 -94.1 -3.705
08:09 1013 29.91 842 24.86 -16.3 2.7 88 -17.9 -0.2 -94.1 -3.705
08:10 1013 29.91 842 24.86 -16.3 2.7 87 -17.9 -0.2 -94.1 -3.705
08:11 1013 29.91 842 24.86 -16.2 2.8 87 -17.9 -0.1 -94.1 -3.705
08:12 1013 29.91 842 24.86 -16.2 2.9 87 -17.8 -0.1 -94.1 -3.705
08:13 1013 29.91 842 24.86 -16.2 2.9 87 -17.8 -0.1 -94.1 -3.705
08:14 1013 29.91 842 24.86 -16.1 2.9 87 -17.8 -0.1 -94.1 -3.705
08:15 1013 29.91 843 24.89 -16.1 3 87 -17.8 -0.1 -94.1 -3.705
08:16 1013 29.91 843 24.89 -16.1 3 87 -17.8 -0.1 -94.1 -3.705
08:17 1013 29.91 843 24.89 -16.1 3.1 87 -17.8 -0 -94.1 -3.705
08:18 1013 29.91 843 24.89 -16.1 3 87 -17.8 -0.1 -94.1 -3.705
08:19 1013 29.91 843 24.89 -16.1 3.1 87 -17.8 -0 -94.1 -3.705
08:20 1013 29.91 843 24.89 -16 3.2 87 -17.7 0.1 -94.1 -3.705
08:21 1013 29.91 842 24.86 -16 3.1 87 -17.7 0.1 -94.1 -3.705
08:22 1013 29.91 842 24.86 -16 3.2 87 -17.7 0.1 -94.1 -3.705
08:23 1013 29.91 842 24.86 -16 3.2 87 -17.7 0.1 -94.1 -3.705
08:24 1013 29.91 843 24.89 -15.9 3.3 87 -17.7 0.2 -94.1 -3.705
08:25 1013 29.91 843 24.89 -15.9 3.4 87 -17.7 0.2 -94.1 -3.705
08:26 1013 29.91 843 24.89 -15.9 3.4 87 -17.6 0.2 -94.1 -3.705
08:27 1013 29.91 843 24.89 -15.9 3.5 87 -17.6 0.3 -94.1 -3.705
08:28 1013 29.91 843 24.89 -15.9 3.4 86 -17.7 0.2 -94 -3.701
08:29 1013 29.91 843 24.89 -15.9 3.4 86 -17.7 0.1 -94.1 -3.705
08:30 1013 29.91 843 24.89 -15.9 3.4 86 -17.8 0 -94.1 -3.705
08:31 1013 29.91 843 24.89 -15.9 3.4 86 -17.7 0.1 -94.1 -3.705
08:32 1013 29.91 843 24.89 -15.9 3.3 86 -17.8 -0 -94.1 -3.705
08:33 1013 29.91 843 24.89 -15.9 3.3 86 -17.8 -0.1 -94.1 -3.705
08:34 1013 29.91 843 24.89 -16 3.3 86 -17.8 -0.1 -94.1 -3.705
08:35 1013 29.91 843 24.89 -16 3.3 86 -17.8 0 -94.1 -3.705
08:36 1013 29.91 843 24.89 -15.9 3.5 86 -17.7 0.2 -94.1 -3.705
08:37 1013 29.91 843 24.89 -15.9 3.4 86 -17.7 0.1 -94.1 -3.705
08:38 1014 29.94 843 24.89 -15.9 3.5 86 -17.7 0.1 -94.1 -3.705
08:39 1014 29.94 843 24.89 -15.8 3.5 86 -17.7 0.1 -94.1 -3.705
08:40 1014 29.94 843 24.89 -15.8 3.5 86 -17.7 0.1 -94.1 -3.705
08:41 1014 29.94 843 24.89 -15.8 3.6 85 -17.7 0.1 -94 -3.701
08:42 1014 29.94 843 24.89 -15.8 3.6 85 -17.7 0.1 -94 -3.701
08:43 1014 29.94 843 24.89 -15.7 3.7 85 -17.7 0.2 -94 -3.701
08:44 1014 29.94 843 24.89 -15.7 3.7 85 -17.7 0.1 -94 -3.701
08:45 1014 29.94 843 24.89 -15.7 3.7 85 -17.7 0.1 -94 -3.701
08:46 1014 29.94 843 24.89 -15.7 3.7 85 -17.7 0.2 -94 -3.701
08:47 1014 29.94 843 24.89 -15.7 3.8 85 -17.7 0.1 -94 -3.701
08:48 1014 29.94 843 24.89 -15.7 3.8 84 -17.8 0 -94 -3.701
08:49 1014 29.94 843 24.89 -15.7 3.8 85 -17.7 0.1 -94 -3.701
08:50 1014 29.94 843 24.89 -15.7 3.7 85 -17.7 0.1 -94 -3.701
08:51 1014 29.94 843 24.89 -15.7 3.7 85 -17.7 0.1 -94 -3.701
08:52 1014 29.94 843 24.89 -15.7 3.8 85 -17.7 0.1 -94 -3.701
08:53 1014 29.94 843 24.89 -15.7 3.8 84 -17.7 0.1 -94 -3.701
08:54 1014 29.94 843 24.89 -15.7 3.8 84 -17.8 0 -94 -3.701
08:55 1014 29.94 843 24.89 -15.7 3.7 84 -17.8 0 -94 -3.701
08:56 1014 29.94 843 24.89 -15.7 3.7 84 -17.8 0 -94 -3.701
08:57 1014 29.94 843 24.89 -15.7 3.8 85 -17.7 0.1 -94 -3.701
08:58 1014 29.94 843 24.89 -15.7 3.8 85 -17.7 0.1 -94 -3.701
08:59 1014 29.94 843 24.89 -15.7 3.8 85 -17.7 0.2 -94 -3.701
09:00 1014 29.94 843 24.89 -15.7 3.8 85 -17.7 0.1 -94 -3.701
09:01 1014 29.94 843 24.89 -15.7 3.8 85 -17.7 0.2 -94 -3.701
09:02 1014 29.94 843 24.89 -15.7 3.8 85 -17.6 0.3 -94 -3.701
09:03 1014 29.94 843 24.89 -15.7 3.8 85 -17.6 0.3 -94 -3.701
09:04 1014 29.94 843 24.89 -15.6 3.9 85 -17.6 0.4 -94 -3.701
09:05 1014 29.94 843 24.89 -15.6 3.9 85 -17.6 0.4 -94 -3.701
09:06 1014 29.94 843 24.89 -15.6 4 85 -17.5 0.4 -94 -3.701
09:07 1014 29.94 843 24.89 -15.6 4 85 -17.6 0.4 -94 -3.701
09:08 1014 29.94 843 24.89 -15.5 4.1 85 -17.6 0.4 -94 -3.701
09:09 1014 29.94 843 24.89 -15.5 4.1 84 -17.6 0.3 -94 -3.701
09:10 1014 29.94 843 24.89 -15.5 4.2 84 -17.6 0.3 -94 -3.701
09:11 1014 29.94 843 24.89 -15.4 4.2 84 -17.6 0.4 -94 -3.701
09:12 1014 29.94 843 24.89 -15.4 4.2 84 -17.6 0.3 -94 -3.701
09:13 1014 29.94 843 24.89 -15.4 4.2 84 -17.6 0.3 -94 -3.701
09:14 1014 29.94 843 24.89 -15.4 4.2 84 -17.6 0.3 -94 -3.701
09:15 1014 29.94 843 24.89 -15.4 4.4 84 -17.5 0.5 -94 -3.701
09:16 1014 29.94 843 24.89 -15.3 4.4 84 -17.5 0.5 -94 -3.701
09:17 1014 29.94 843 24.89 -15.3 4.4 83 -17.6 0.4 -94 -3.701
09:18 1014 29.94 843 24.89 -15.3 4.5 84 -17.5 0.5 -94 -3.701
09:19 1014 29.94 843 24.89 -15.2 4.6 83 -17.5 0.5 -94 -3.701
09:20 1014 29.94 843 24.89 -15.2 4.7 83 -17.4 0.7 -94 -3.701
09:21 1014 29.94 843 24.89 -15.2 4.7 84 -17.3 0.8 -94 -3.701
09:22 1014 29.94 843 24.89 -15.1 4.9 83 -17.3 0.9 -94 -3.701
09:23 1014 29.94 843 24.89 -15 5 84 -17.2 1.1 -94 -3.701
09:24 1014 29.94 843 24.89 -14.9 5.2 84 -17 1.3 -94 -3.701
09:25 1014 29.94 843 24.89 -14.8 5.5 84 -16.8 1.7 -94 -3.701
09:26 1014 29.94 843 24.89 -14.6 5.7 84 -16.8 1.8 -94 -3.701
09:27 1014 29.94 843 24.89 -14.5 6 83 -16.8 1.8 -94 -3.701
09:28 1014 29.94 843 24.89 -14.5 6 81 -17.1 1.3 -94 -3.701
09:29 1014 29.94 843 24.89 -14.6 5.8 79 -17.4 0.7 -94 -3.701
09:30 1014 29.94 843 24.89 -14.7 5.6 79 -17.5 0.5 -94 -3.701
09:31 1014 29.94 843 24.89 -14.7 5.5 79 -17.6 0.3 -94 -3.701
09:32 1014 29.94 843 24.89 -14.8 5.4 80 -17.6 0.4 -94 -3.701
09:33 1014 29.94 843 24.89 -14.7 5.6 80 -17.4 0.7 -94 -3.701
09:34 1014 29.94 843 24.89 -14.6 5.6 80 -17.4 0.6 -94 -3.701
09:35 1014 29.94 843 24.89 -14.6 5.6 79 -17.5 0.5 -94 -3.701
09:36 1014 29.94 843 24.89 -14.6 5.7 79 -17.4 0.6 -94 -3.701
09:37 1014 29.94 843 24.89 -14.6 5.8 79 -17.4 0.7 -94 -3.701
09:38 1014 29.94 843 24.89 -14.4 6 79 -17.3 0.9 -94 -3.701
09:39 1014 29.94 843 24.89 -14.4 6.1 78 -17.4 0.7 -94 -3.701
09:40 1014 29.94 843 24.89 -14.4 6.1 77 -17.5 0.5 -94 -3.701
09:41 1014 29.94 843 24.89 -14.4 6.1 77 -17.5 0.5 -94 -3.701
09:42 1014 29.94 843 24.89 -14.4 6.1 77 -17.6 0.3 -94 -3.701
09:43 1014 29.94 843 24.89 -14.4 6 77 -17.6 0.3 -94 -3.701
09:44 1014 29.94 843 24.89 -14.5 5.9 78 -17.6 0.3 -94 -3.701
09:45 1014 29.94 843 24.89 -14.5 5.9 78 -17.6 0.4 -94 -3.701
09:46 1014 29.94 843 24.89 -14.5 5.8 78 -17.6 0.4 -94 -3.701
09:47 1014 29.94 843 24.89 -14.5 5.9 78 -17.5 0.6 -94 -3.701
09:48 1014 29.94 843 24.89 -14.3 6.2 78 -17.4 0.8 -93.9 -3.697
09:49 1014 29.94 843 24.89 -14.1 6.6 77 -17.3 0.9 -93.9 -3.697
09:50 1014 29.94 843 24.89 -13.9 7 76 -17.3 0.9 -93.9 -3.697
09:51 1014 29.94 843 24.89 -13.8 7.1 75 -17.4 0.7 -93.9 -3.697
09:52 1014 29.94 843 24.89 -13.9 7 75 -17.4 0.7 -93.9 -3.697
09:53 1014 29.94 843 24.89 -13.8 7.1 76 -17.2 1.1 -93.9 -3.697
09:54 1014 29.94 843 24.89 -13.7 7.4 74 -17.3 0.8 -93.9 -3.697
09:55 1014 29.94 843 24.89 -13.6 7.4 74 -17.4 0.7 -93.9 -3.697
09:56 1014 29.94 843 24.89 -13.6 7.5 74 -17.3 0.9 -93.9 -3.697
09:57 1014 29.94 843 24.89 -13.5 7.8 74 -17.1 1.2 -93.9 -3.697
09:58 1014 29.94 843 24.89 -13.3 8.1 73 -17.1 1.2 -93.9 -3.697
09:59 1014 29.94 843 24.89 -13 8.5 73 -17 1.4 -93.9 -3.697
10:00 1014 29.94 843 24.89 -12.8 9 71 -17 1.4 -93.9 -3.697
10:01 1014 29.94 843 24.89 -12.6 9.3 71 -16.8 1.7 -93.9 -3.697
10:02 1014 29.94 843 24.89 -12.3 9.8 68 -17 1.3 -93.9 -3.697
10:03 1014 29.94 843 24.89 -12.5 9.4 68 -17.3 0.9 -93.9 -3.697
10:04 1014 29.94 843 24.89 -12.9 8.7 70 -17.4 0.7 -93.9 -3.697
10:05 1014 29.94 843 24.89 -13.2 8.3 71 -17.4 0.6 -93.9 -3.697
10:06 1014 29.94 843 24.89 -13.3 8.1 72 -17.4 0.7 -93.9 -3.697
10:07 1014 29.94 843 24.89 -13.4 7.9 72 -17.4 0.6 -93.8 -3.693
10:08 1014 29.94 843 24.89 -13.5 7.8 72 -17.4 0.6 -93.8 -3.693
10:09 1014 29.94 843 24.89 -13.5 7.8 72 -17.5 0.6 -93.8 -3.693
10:10 1014 29.94 843 24.89 -13.5 7.7 72 -17.5 0.5 -93.8 -3.693
10:11 1014 29.94 843 24.89 -13.6 7.6 73 -17.5 0.5 -93.8 -3.693
10:12 1014 29.94 843 24.89 -13.7 7.4 73 -17.5 0.5 -93.8 -3.693
10:13 1014 29.94 843 24.89 -13.8 7.2 74 -17.5 0.5 -93.8 -3.693
10:14 1014 29.94 843 24.89 -13.8 7.2 74 -17.4 0.6 -93.8 -3.693
10:15 1014 29.94 843 24.89 -13.8 7.2 74 -17.5 0.6 -93.8 -3.693
10:16 1014 29.94 843 24.89 -13.8 7.2 74 -17.5 0.5 -93.8 -3.693
10:17 1014 29.94 843 24.89 -13.7 7.3 74 -17.4 0.7 -93.8 -3.693
10:18 1014 29.94 843 24.89 -13.7 7.4 74 -17.4 0.8 -93.7 -3.689
10:19 1014 29.94 843 24.89 -13.7 7.4 74 -17.4 0.7 -93.7 -3.689
10:20 1014 29.94 843 24.89 -13.6 7.5 73 -17.4 0.7 -93.7 -3.689
10:21 1014 29.94 843 24.89 -13.5 7.6 73 -17.4 0.6 -93.7 -3.689
10:22 1014 29.94 843 24.89 -13.5 7.7 73 -17.4 0.7 -93.7 -3.689
10:23 1013 29.91 843 24.89 -13.5 7.6 73 -17.4 0.7 -93.7 -3.689
10:24 1013 29.91 843 24.89 -13.5 7.6 74 -17.3 0.9 -93.7 -3.689
10:25 1013 29.91 843 24.89 -13.5 7.8 74 -17.2 1 -93.7 -3.689
10:26 1013 29.91 843 24.89 -13.4 7.9 73 -17.3 0.8 -93.7 -3.689
10:27 1013 29.91 843 24.89 -13.4 7.9 73 -17.3 0.8 -93.7 -3.689
10:28 1013 29.91 843 24.89 -13.5 7.7 73 -17.3 0.9 -93.7 -3.689
10:29 1013 29.91 843 24.89 -13.5 7.6 74 -17.3 0.8 -93.7 -3.689
10:30 1013 29.91 843 24.89 -13.6 7.5 74 -17.3 0.8 -93.7 -3.689
10:31 1013 29.91 843 24.89 -13.7 7.4 74 -17.3 0.8 -93.6 -3.685
10:32 1013 29.91 843 24.89 -13.7 7.4 74 -17.3 0.8 -93.6 -3.685
10:33 1013 29.91 843 24.89 -13.7 7.4 75 -17.3 0.9 -93.6 -3.685
10:34 1013 29.91 843 24.89 -13.7 7.4 74 -17.3 0.9 -93.6 -3.685
10:35 1013 29.91 843 24.89 -13.6 7.5 74 -17.2 1 -93.6 -3.685
10:36 1013 29.91 843 24.89 -13.6 7.6 74 -17.2 1 -93.6 -3.685
10:37 1013 29.91 843 24.89 -13.5 7.8 74 -17.2 1 -93.6 -3.685
10:38 1013 29.91 842 24.86 -13.3 8 73 -17.3 0.9 -93.6 -3.685
10:39 1013 29.91 842 24.86 -13.3 8.1 72 -17.3 0.8 -93.6 -3.685
10:40 1013 29.91 843 24.89 -13.2 8.2 72 -17.3 0.8 -93.6 -3.685
10:41 1013 29.91 842 24.86 -13.1 8.4 72 -17.2 1.1 -93.6 -3.685
10:42 1013 29.91 842 24.86 -13 8.6 71 -17.2 1 -93.6 -3.685
10:43 1013 29.91 842 24.86 -13 8.6 72 -17.1 1.2 -93.6 -3.685
10:44 1013 29.91 843 24.89 -12.8 9 71 -16.9 1.5 -93.6 -3.685
10:45 1013 29.91 843 24.89 -12.6 9.3 69 -17.1 1.1 -93.6 -3.685
10:46 1013 29.91 843 24.89 -12.6 9.4 70 -17 1.4 -93.6 -3.685
10:47 1013 29.91 843 24.89 -12.5 9.5 69 -17 1.3 -93.6 -3.685
10:48 1013 29.91 843 24.89 -12.3 9.9 71 -16.5 2.3 -93.6 -3.685
10:49 1013 29.91 843 24.89 -11.9 10.6 69 -16.4 2.4 -93.6 -3.685
10:50 1013 29.91 843 24.89 -11.5 11.2 68 -16.4 2.5 -93.5 -3.681
10:51 1013 29.91 843 24.89 -11.3 11.7 67 -16.2 2.8 -93.5 -3.681
10:52 1013 29.91 843 24.89 -11 12.2 65 -16.3 2.6 -93.5 -3.681
10:53 1013 29.91 843 24.89 -10.8 12.6 63 -16.6 2.1 -93.5 -3.681
10:54 1013 29.91 843 24.89 -10.7 12.7 62 -16.6 2.2 -93.5 -3.681
10:55 1013 29.91 843 24.89 -10.5 13.2 62 -16.3 2.6 -93.5 -3.681
10:56 1013 29.91 843 24.89 -10.1 13.8 62 -16 3.2 -93.5 -3.681
10:57 1013 29.91 843 24.89 -9.8 14.4 60 -16.1 3.1 -93.5 -3.681
10:58 1013 29.91 843 24.89 -9.4 15 60 -15.8 3.5 -93.5 -3.681
10:59 1013 29.91 843 24.89 -9.1 15.7 59 -15.7 3.7 -93.5 -3.681
11:00 1013 29.91 843 24.89 -8.7 16.4 56 -16 3.1 -93.4 -3.677
11:01 1013 29.91 843 24.89 -8.3 17 53 -16.3 2.7 -93.4 -3.677
11:02 1013 29.91 843 24.89 -8.4 16.9 53 -16.3 2.7 -93.4 -3.677
11:03 1013 29.91 843 24.89 -8.9 16 55 -16.3 2.7 -93.3 -3.673
11:04 1013 29.91 843 24.89 -9.5 14.9 57 -16.5 2.4 -93.3 -3.673
11:05 1013 29.91 843 24.89 -10 14.1 59 -16.5 2.2 -93.3 -3.673
11:06 1013 29.91 843 24.89 -10.3 13.6 61 -16.4 2.4 -93.3 -3.673
11:07 1013 29.91 843 24.89 -10.6 12.9 62 -16.5 2.3 -93.3 -3.673
11:08 1013 29.91 843 24.89 -11.1 12 65 -16.5 2.2 -93.3 -3.673
11:09 1013 29.91 843 24.89 -11.6 11.2 66 -16.6 2.1 -93.3 -3.673
11:10 1013 29.91 843 24.89 -11.9 10.7 68 -16.7 2 -93.4 -3.677
11:11 1013 29.91 843 24.89 -12.1 10.2 69 -16.7 2 -93.3 -3.673
11:12 1013 29.91 843 24.89 -12.5 9.6 71 -16.7 2 -93.3 -3.673
11:13 1013 29.91 843 24.89 -12.7 9.2 72 -16.7 2 -93.3 -3.673
11:14 1013 29.91 843 24.89 -12.9 8.8 74 -16.7 2 -93.3 -3.673
11:15 1013 29.91 843 24.89 -13.1 8.5 75 -16.6 2 -93.3 -3.673
11:16 1013 29.91 843 24.89 -13.1 8.4 74 -16.8 1.7 -93.3 -3.673
11:17 1013 29.91 843 24.89 -13.2 8.3 75 -16.7 1.9 -93.3 -3.673
11:18 1013 29.91 843 24.89 -13.2 8.2 75 -16.8 1.8 -93.3 -3.673
11:19 1013 29.91 843 24.89 -13.4 8 76 -16.8 1.8 -93.3 -3.673
11:20 1013 29.91 843 24.89 -13.4 8 76 -16.7 2 -93.3 -3.673
11:21 1013 29.91 843 24.89 -13.3 8 76 -16.8 1.8 -93.3 -3.673
11:22 1013 29.91 843 24.89 -13.3 8.1 76 -16.7 1.9 -93.3 -3.673
11:23 1013 29.91 843 24.89 -13.3 8.1 76 -16.7 1.9 -93.3 -3.673
11:24 1013 29.91 843 24.89 -13.3 8.1 76 -16.7 2 -93.3 -3.673
11:25 1013 29.91 843 24.89 -13.3 8.1 76 -16.7 2 -93.3 -3.673
11:26 1013 29.91 843 24.89 -13.3 8.1 76 -16.6 2 -93.3 -3.673
11:27 1013 29.91 843 24.89 -13.2 8.2 76 -16.6 2 -93.3 -3.673
11:28 1013 29.91 843 24.89 -13.3 8.1 76 -16.6 2.1 -93.3 -3.673
11:29 1013 29.91 843 24.89 -13.3 8.1 77 -16.6 2.1 -93.3 -3.673
11:30 1013 29.91 843 24.89 -13.3 8.1 77 -16.6 2.2 -93.3 -3.673
11:31 1013 29.91 843 24.89 -13.3 8.1 76 -16.6 2.1 -93.3 -3.673
11:32 1013 29.91 843 24.89 -13.3 8.1 77 -16.6 2.1 -93.3 -3.673
11:33 1013 29.91 843 24.89 -13.2 8.2 76 -16.6 2.2 -93.3 -3.673
11:34 1013 29.91 843 24.89 -13.2 8.2 76 -16.6 2.2 -93.2 -3.669
11:35 1013 29.91 843 24.89 -13.3 8.1 76 -16.7 2 -93.2 -3.669
11:36 1013 29.91 843 24.89 -13.3 8.1 76 -16.6 2.1 -93.2 -3.669
11:37 1013 29.91 843 24.89 -13.3 8 77 -16.6 2.1 -93.2 -3.669
11:38 1013 29.91 843 24.89 -13.3 8 76 -16.7 2 -93.2 -3.669
11:39 1013 29.91 843 24.89 -13.4 8 76 -16.7 2 -93.2 -3.669
11:40 1013 29.91 843 24.89 -13.3 8 77 -16.6 2.1 -93.2 -3.669
11:41 1013 29.91 843 24.89 -13.3 8 76 -16.7 2 -93.2 -3.669
11:42 1013 29.91 843 24.89 -13.4 7.9 77 -16.6 2.1 -93.2 -3.669
11:43 1013 29.91 843 24.89 -13.3 8 76 -16.6 2.1 -93.2 -3.669
11:44 1013 29.91 843 24.89 -13.3 8.1 76 -16.6 2.1 -93.2 -3.669
11:45 1013 29.91 843 24.89 -13.3 8 76 -16.7 2 -93.2 -3.669
11:46 1013 29.91 843 24.89 -13.3 8 76 -16.7 2 -93.2 -3.669
11:47 1013 29.91 843 24.89 -13.3 8.2 76 -16.6 2.1 -93.2 -3.669
11:48 1013 29.91 843 24.89 -13.2 8.2 76 -16.6 2.1 -93.2 -3.669
11:49 1013 29.91 843 24.89 -13.2 8.2 76 -16.7 2 -93.2 -3.669
11:50 1013 29.91 843 24.89 -13.2 8.3 76 -16.6 2.1 -93.2 -3.669
11:51 1013 29.91 843 24.89 -13.2 8.3 76 -16.6 2.2 -93.2 -3.669
11:52 1013 29.91 843 24.89 -13.2 8.3 75 -16.6 2 -93.2 -3.669
11:53 1013 29.91 843 24.89 -13.2 8.2 76 -16.7 2 -93.2 -3.669
11:54 1013 29.91 842 24.86 -13.2 8.3 76 -16.6 2.1 -93.2 -3.669
11:55 1013 29.91 843 24.89 -13.1 8.4 76 -16.6 2.1 -93.2 -3.669
11:56 1013 29.91 843 24.89 -13.1 8.4 75 -16.6 2.1 -93.2 -3.669
11:57 1013 29.91 843 24.89 -13.1 8.5 75 -16.7 1.9 -93.2 -3.669
11:58 1013 29.91 843 24.89 -13.1 8.5 75 -16.6 2.1 -93.2 -3.669
11:59 1013 29.91 843 24.89 -13 8.6 75 -16.6 2.1 -93.2 -3.669
12:00 1013 29.91 842 24.86 -13 8.7 75 -16.6 2.2 -93.2 -3.669
12:01 1013 29.91 842 24.86 -12.9 8.8 74 -16.7 2 -93.2 -3.669
12:02 1013 29.91 842 24.86 -12.9 8.7 74 -16.7 1.9 -93.2 -3.669
12:03 1013 29.91 842 24.86 -13 8.6 74 -16.7 1.9 -93.2 -3.669
12:04 1013 29.91 842 24.86 -13 8.6 75 -16.6 2.1 -93.2 -3.669
12:05 1013 29.91 842 24.86 -12.9 8.7 74 -16.7 1.9 -93.2 -3.669
12:06 1013 29.91 842 24.86 -12.9 8.8 74 -16.7 2 -93.2 -3.669
12:07 1013 29.91 842 24.86 -12.9 8.8 74 -16.6 2.1 -93.2 -3.669
12:08 1013 29.91 842 24.86 -12.7 9.1 74 -16.5 2.2 -93.2 -3.669
12:09 1013 29.91 842 24.86 -12.6 9.3 73 -16.6 2.2 -93.2 -3.669
12:10 1013 29.91 842 24.86 -12.6 9.4 72 -16.7 2 -93.2 -3.669
12:11 1013 29.91 842 24.86 -12.5 9.6 71 -16.7 1.9 -93.2 -3.669
12:12 1013 29.91 842 24.86 -12.4 9.8 71 -16.6 2 -93.2 -3.669
12:13 1013 29.91 842 24.86 -12.2 10.1 71 -16.5 2.3 -93.2 -3.669
12:14 1013 29.91 842 24.86 -12 10.4 70 -16.5 2.4 -93.2 -3.669
12:15 1013 29.91 842 24.86 -11.9 10.7 68 -16.6 2.1 -93.2 -3.669
12:16 1013 29.91 842 24.86 -11.8 10.8 67 -16.7 1.9 -93.2 -3.669
12:17 1013 29.91 842 24.86 -11.8 10.8 67 -16.7 1.9 -93.2 -3.669
12:18 1013 29.91 842 24.86 -11.8 10.8 67 -16.8 1.8 -93.2 -3.669
12:19 1013 29.91 842 24.86 -11.9 10.7 67 -16.8 1.8 -93.2 -3.669
12:20 1013 29.91 842 24.86 -11.8 10.7 68 -16.7 2 -93.2 -3.669
12:21 1013 29.91 842 24.86 -11.7 10.9 67 -16.6 2.1 -93.2 -3.669
12:22 1013 29.91 842 24.86 -11.7 11 67 -16.6 2.1 -93.2 -3.669
12:23 1013 29.91 842 24.86 -11.7 11 67 -16.6 2 -93.2 -3.669
12:24 1013 29.91 842 24.86 -11.7 11 67 -16.6 2.1 -93.2 -3.669
12:25 1013 29.91 842 24.86 -11.7 11 68 -16.5 2.2 -93.2 -3.669
12:26 1013 29.91 842 24.86 -11.6 11 67 -16.6 2.1 -93.2 -3.669
12:27 1013 29.91 842 24.86 -11.7 11 67 -16.7 2 -93.2 -3.669
12:28 1013 29.91 842 24.86 -11.7 11 67 -16.6 2.1 -93.2 -3.669
12:29 1013 29.91 842 24.86 -11.7 10.9 67 -16.7 2 -93.2 -3.669
12:30 1013 29.91 842 24.86 -11.7 11 67 -16.6 2.1 -93.2 -3.669
12:31 1013 29.91 842 24.86 -11.5 11.3 66 -16.6 2.1 -93.2 -3.669
12:32 1013 29.91 842 24.86 -11.4 11.4 66 -16.5 2.3 -93.2 -3.669
12:33 1013 29.91 842 24.86 -11.3 11.7 65 -16.6 2.2 -93.2 -3.669
12:34 1013 29.91 842 24.86 -11.2 11.8 66 -16.4 2.4 -93.2 -3.669
12:35 1013 29.91 842 24.86 -11.2 11.9 65 -16.5 2.4 -93.2 -3.669
12:36 1013 29.91 842 24.86 -11.1 12 65 -16.4 2.5 -93.2 -3.669
12:37 1013 29.91 842 24.86 -11 12.1 64 -16.5 2.3 -93.1 -3.665
12:38 1013 29.91 842 24.86 -11.2 11.8 65 -16.6 2.1 -93.2 -3.669
12:39 1013 29.91 842 24.86 -11.3 11.7 66 -16.5 2.3 -93.2 -3.669
12:40 1013 29.91 842 24.86 -11.2 11.9 66 -16.3 2.6 -93.1 -3.665
12:41 1013 29.91 842 24.86 -10.9 12.4 64 -16.4 2.5 -93.1 -3.665
12:42 1013 29.91 842 24.86 -10.7 12.8 64 -16.2 2.8 -93.1 -3.665
12:43 1013 29.91 842 24.86 -10.5 13.1 64 -16 3.2 -93.1 -3.665
12:44 1013 29.91 842 24.86 -10.3 13.5 61 -16.4 2.4 -93.1 -3.665
12:45 1013 29.91 842 24.86 -10.3 13.4 62 -16.4 2.6 -93.1 -3.665
12:46 1013 29.91 842 24.86 -10.5 13.2 62 -16.5 2.4 -93.1 -3.665
12:47 1013 29.91 842 24.86 -10.7 12.8 63 -16.4 2.5 -93.1 -3.665
12:48 1013 29.91 842 24.86 -10.8 12.7 63 -16.5 2.3 -93.1 -3.665
12:49 1013 29.91 842 24.86 -10.8 12.6 62 -16.7 2 -93.1 -3.665
12:50 1013 29.91 842 24.86 -10.8 12.6 62 -16.8 1.8 -93.1 -3.665
12:51 1013 29.91 842 24.86 -10.7 12.7 62 -16.7 1.9 -93.1 -3.665
12:52 1013 29.91 842 24.86 -10.8 12.5 62 -16.7 1.9 -93.1 -3.665
12:53 1013 29.91 842 24.86 -10.8 12.7 62 -16.6 2.1 -93.1 -3.665
12:54 1013 29.91 842 24.86 -10.6 13 61 -16.6 2.1 -93.1 -3.665
12:55 1013 29.91 842 24.86 -10.4 13.3 59 -16.9 1.6 -93 -3.661
12:56 1013 29.91 842 24.86 -10.3 13.4 59 -16.9 1.6 -93 -3.661
12:57 1013 29.91 842 24.86 -10.2 13.7 59 -16.8 1.8 -93 -3.661
12:58 1013 29.91 842 24.86 -9.9 14.1 57 -16.9 1.6 -93 -3.661
12:59 1013 29.91 842 24.86 -10 14 58 -16.9 1.6 -93 -3.661
13:00 1013 29.91 842 24.86 -10.5 13.1 60 -16.9 1.6 -93 -3.661
13:01 1013 29.91 842 24.86 -11 12.3 62 -16.9 1.6 -93 -3.661
13:02 1013 29.91 842 24.86 -11.3 11.6 64 -16.9 1.6 -93 -3.661
13:03 1013 29.91 842 24.86 -11.5 11.4 64 -17 1.4 -93 -3.661
13:04 1013 29.91 842 24.86 -11.5 11.2 64 -17 1.5 -93 -3.661
13:05 1013 29.91 842 24.86 -11.6 11.2 65 -16.9 1.5 -93 -3.661
13:06 1013 29.91 842 24.86 -11.7 11 65 -17 1.4 -93 -3.661
13:07 1013 29.91 842 24.86 -11.9 10.6 66 -17 1.4 -93 -3.661
13:08 1013 29.91 842 24.86 -12 10.4 67 -17 1.4 -93 -3.661
13:09 1013 29.91 842 24.86 -12.1 10.3 67 -16.9 1.5 -93 -3.661
13:10 1013 29.91 842 24.86 -12.2 10.1 68 -16.9 1.6 -93 -3.661
13:11 1013 29.91 842 24.86 -12.3 10 68 -17 1.4 -93 -3.661
13:12 1013 29.91 842 24.86 -12.3 9.9 69 -16.9 1.5 -93 -3.661
13:13 1013 29.91 842 24.86 -12.4 9.7 69 -17 1.4 -93 -3.661
13:14 1013 29.91 842 24.86 -12.5 9.5 71 -16.8 1.8 -93 -3.661
13:15 1013 29.91 842 24.86 -12.6 9.3 71 -16.8 1.7 -93 -3.661
13:16 1013 29.91 842 24.86 -12.8 9 71 -16.9 1.6 -93 -3.661
13:17 1013 29.91 842 24.86 -12.9 8.9 72 -16.9 1.5 -93 -3.661
13:18 1013 29.91 842 24.86 -12.9 8.9 73 -16.8 1.7 -93 -3.661
13:19 1013 29.91 842 24.86 -12.8 8.9 72 -16.8 1.7 -93 -3.661
13:20 1013 29.91 842 24.86 -12.8 9 72 -16.8 1.8 -93 -3.661
13:21 1013 29.91 842 24.86 -12.7 9.2 71 -16.8 1.7 -93 -3.661
13:22 1013 29.91 842 24.86 -12.6 9.4 71 -16.8 1.7 -93 -3.661
13:23 1013 29.91 842 24.86 -12.5 9.5 71 -16.6 2 -93 -3.661
13:24 1013 29.91 842 24.86 -12.4 9.6 71 -16.7 2 -93 -3.661
13:25 1013 29.91 842 24.86 -12.5 9.6 70 -16.8 1.7 -93 -3.661
13:26 1013 29.91 842 24.86 -12.5 9.5 71 -16.8 1.8 -93 -3.661
13:27 1013 29.91 842 24.86 -12.5 9.4 70 -16.9 1.7 -93 -3.661
13:28 1013 29.91 842 24.86 -12.5 9.4 71 -16.9 1.7 -93 -3.661
13:29 1013 29.91 842 24.86 -12.5 9.5 71 -16.7 2 -93 -3.661
13:30 1013 29.91 842 24.86 -12.5 9.6 70 -16.8 1.7 -93 -3.661
13:31 1013 29.91 842 24.86 -12.4 9.7 70 -16.7 1.9 -93 -3.661
13:32 1013 29.91 842 24.86 -12.3 9.9 70 -16.7 2 -93 -3.661
13:33 1013 29.91 842 24.86 -12.1 10.3 69 -16.6 2.1 -93 -3.661
13:34 1013 29.91 842 24.86 -11.7 11 68 -16.4 2.5 -93 -3.661
13:35 1013 29.91 842 24.86 -11.2 11.8 66 -16.5 2.4 -93 -3.661
13:36 1013 29.91 842 24.86 -10.9 12.5 64 -16.4 2.4 -93 -3.661
13:37 1013 29.91 842 24.86 -10.5 13 63 -16.4 2.6 -93 -3.661
13:38 1013 29.91 842 24.86 -10.2 13.6 61 -16.4 2.6 -93 -3.661
13:39 1013 29.91 842 24.86 -9.9 14.2 60 -16.4 2.5 -93 -3.661
13:40 1013 29.91 842 24.86 -9.7 14.6 58 -16.5 2.4 -92.9 -3.657
13:41 1013 29.91 842 24.86 -9.7 14.5 58 -16.6 2.1 -92.9 -3.657
13:42 1013 29.91 842 24.86 -9.9 14.2 58 -16.6 2.1 -92.9 -3.657
13:43 1013 29.91 842 24.86 -10.1 13.8 60 -16.5 2.3 -93 -3.661
13:44 1013 29.91 842 24.86 -10.3 13.6 61 -16.4 2.4 -93 -3.661
13:45 1013 29.91 842 24.86 -10.5 13 62 -16.5 2.4 -93 -3.661
13:46 1013 29.91 842 24.86 -11 12.2 64 -16.5 2.3 -93 -3.661
13:47 1013 29.91 842 24.86 -11.3 11.6 66 -16.5 2.3 -93 -3.661
13:48 1013 29.91 842 24.86 -11.6 11.2 67 -16.5 2.3 -93 -3.661
13:49 1013 29.91 842 24.86 -11.7 11 68 -16.5 2.3 -93 -3.661
13:50 1013 29.91 842 24.86 -11.8 10.8 68 -16.6 2.1 -93 -3.661
13:51 1013 29.91 842 24.86 -12 10.5 69 -16.6 2.1 -93 -3.661
13:52 1013 29.91 842 24.86 -12.1 10.2 69 -16.7 2 -93 -3.661
13:53 1013 29.91 842 24.86 -12.2 10 70 -16.6 2.1 -93 -3.661
13:54 1013 29.91 842 24.86 -12.3 9.8 71 -16.6 2.1 -93 -3.661
13:55 1013 29.91 842 24.86 -12.4 9.8 71 -16.6 2 -93 -3.661
13:56 1013 29.91 842 24.86 -12.5 9.6 71 -16.7 2 -93 -3.661
13:57 1013 29.91 842 24.86 -12.5 9.5 72 -16.6 2.1 -93 -3.661
13:58 1013 29.91 842 24.86 -12.5 9.5 72 -16.6 2.2 -93 -3.661
13:59 1013 29.91 842 24.86 -12.6 9.3 72 -16.6 2.1 -93 -3.661
14:00 1013 29.91 842 24.86 -12.7 9.1 72 -16.7 1.9 -93 -3.661
14:01 1013 29.91 842 24.86 -12.8 9 73 -16.7 1.9 -93 -3.661
14:02 1013 29.91 842 24.86 -12.8 8.9 73 -16.6 2.1 -93 -3.661
14:03 1013 29.91 842 24.86 -12.8 8.9 74 -16.5 2.4 -93 -3.661
14:04 1013 29.91 842 24.86 -12.8 8.9 73 -16.6 2 -93 -3.661
14:05 1013 29.91 842 24.86 -12.8 9 73 -16.6 2.1 -93 -3.661
14:06 1013 29.91 842 24.86 -12.8 9 74 -16.6 2.2 -93 -3.661
14:07 1013 29.91 842 24.86 -12.8 8.9 73 -16.6 2 -93 -3.661
14:08 1013 29.91 842 24.86 -12.8 8.9 74 -16.6 2.1 -93 -3.661
14:09 1013 29.91 842 24.86 -12.8 8.9 74 -16.5 2.3 -93 -3.661
14:10 1013 29.91 842 24.86 -12.8 8.9 74 -16.5 2.2 -93 -3.661
14:11 1013 29.91 842 24.86 -12.8 8.9 75 -16.5 2.4 -93 -3.661
14:12 1013 29.91 842 24.86 -12.8 8.9 74 -16.5 2.4 -93 -3.661
14:13 1013 29.91 842 24.86 -12.8 9 75 -16.3 2.6 -93 -3.661
14:14 1013 29.91 842 24.86 -12.8 9 75 -16.3 2.6 -93 -3.661
14:15 1013 29.91 842 24.86 -12.8 9 74 -16.4 2.4 -93.1 -3.665
14:16 1013 29.91 842 24.86 -12.8 8.9 75 -16.4 2.5 -93.1 -3.665
14:17 1013 29.91 842 24.86 -12.8 8.9 75 -16.3 2.6 -93.1 -3.665
14:18 1013 29.91 842 24.86 -12.8 8.9 75 -16.4 2.5 -93.1 -3.665
14:19 1012 29.88 842 24.86 -12.8 9 74 -16.5 2.4 -93.1 -3.665
14:20 1012 29.88 842 24.86 -12.8 8.9 75 -16.4 2.4 -93.1 -3.665
14:21 1012 29.88 842 24.86 -12.8 9 75 -16.4 2.5 -93.1 -3.665
14:22 1012 29.88 842 24.86 -12.8 8.9 74 -16.5 2.3 -93.1 -3.665
14:23 1012 29.88 842 24.86 -12.9 8.8 75 -16.5 2.3 -93.1 -3.665
14:24 1013 29.91 842 24.86 -12.9 8.7 75 -16.4 2.4 -93.1 -3.665
14:25 1013 29.91 842 24.86 -13 8.6 76 -16.4 2.4 -93.1 -3.665
14:26 1013 29.91 842 24.86 -13 8.7 76 -16.4 2.5 -93.1 -3.665
14:27 1013 29.91 842 24.86 -13 8.6 76 -16.4 2.5 -93.1 -3.665
14:28 1012 29.88 842 24.86 -13 8.7 76 -16.3 2.6 -93.1 -3.665
14:29 1012 29.88 842 24.86 -13 8.7 76 -16.3 2.6 -93.1 -3.665
14:30 1013 29.91 842 24.86 -12.9 8.7 76 -16.3 2.7 -93.1 -3.665
14:31 1013 29.91 842 24.86 -12.9 8.8 76 -16.3 2.7 -93.1 -3.665
14:32 1013 29.91 842 24.86 -12.9 8.7 76 -16.3 2.7 -93.1 -3.665
14:33 1013 29.91 842 24.86 -13 8.7 77 -16.3 2.7 -93.1 -3.665
14:34 1013 29.91 842 24.86 -13 8.7 76 -16.3 2.7 -93.2 -3.669
14:35 1013 29.91 842 24.86 -13 8.7 76 -16.3 2.7 -93.2 -3.669
14:36 1013 29.91 842 24.86 -12.9 8.7 76 -16.3 2.6 -93.2 -3.669
14:37 1013 29.91 842 24.86 -13 8.6 76 -16.4 2.5 -93.2 -3.669
14:38 1013 29.91 842 24.86 -13 8.6 76 -16.5 2.4 -93.2 -3.669
14:39 1013 29.91 842 24.86 -13.1 8.5 76 -16.5 2.3 -93.2 -3.669
14:40 1013 29.91 842 24.86 -13 8.5 76 -16.5 2.4 -93.2 -3.669
14:41 1013 29.91 842 24.86 -13.1 8.4 76 -16.6 2.2 -93.2 -3.669
14:42 1013 29.91 842 24.86 -13.1 8.4 75 -16.6 2.2 -93.2 -3.669
14:43 1013 29.91 842 24.86 -13.1 8.4 76 -16.5 2.4 -93.2 -3.669
14:44 1013 29.91 842 24.86 -13.1 8.4 76 -16.5 2.2 -93.2 -3.669
14:45 1013 29.91 842 24.86 -13.1 8.4 77 -16.4 2.5 -93.2 -3.669
14:46 1013 29.91 842 24.86 -13.1 8.4 77 -16.4 2.5 -93.2 -3.669
14:47 1013 29.91 842 24.86 -13.2 8.3 77 -16.4 2.5 -93.2 -3.669
14:48 1013 29.91 842 24.86 -13.2 8.3 77 -16.4 2.5 -93.2 -3.669
14:49 1013 29.91 842 24.86 -13.2 8.2 77 -16.4 2.4 -93.2 -3.669
14:50 1013 29.91 842 24.86 -13.2 8.3 77 -16.5 2.3 -93.2 -3.669
14:51 1013 29.91 842 24.86 -13.2 8.2 77 -16.5 2.4 -93.2 -3.669
14:52 1013 29.91 842 24.86 -13.2 8.3 77 -16.5 2.3 -93.2 -3.669
14:53 1013 29.91 842 24.86 -13.2 8.2 77 -16.5 2.3 -93.2 -3.669
14:54 1013 29.91 842 24.86 -13.2 8.2 77 -16.5 2.3 -93.2 -3.669
14:55 1013 29.91 842 24.86 -13.3 8.1 77 -16.4 2.4 -93.3 -3.673
14:56 1013 29.91 842 24.86 -13.3 8.1 77 -16.5 2.4 -93.3 -3.673
14:57 1013 29.91 842 24.86 -13.3 8.1 77 -16.5 2.4 -93.3 -3.673
14:58 1013 29.91 842 24.86 -13.3 8.1 77 -16.5 2.3 -93.3 -3.673
14:59 1013 29.91 842 24.86 -13.3 8.1 77 -16.5 2.3 -93.3 -3.673
15:00 1013 29.91 842 24.86 -13.3 8.1 77 -16.5 2.3 -93.3 -3.673
15:01 1013 29.91 842 24.86 -13.3 8.1 77 -16.5 2.4 -93.3 -3.673
15:02 1013 29.91 842 24.86 -13.3 8.1 77 -16.5 2.3 -93.3 -3.673
15:03 1013 29.91 842 24.86 -13.2 8.2 77 -16.5 2.4 -93.3 -3.673
15:04 1013 29.91 842 24.86 -13.2 8.2 77 -16.5 2.3 -93.3 -3.673
15:05 1013 29.91 842 24.86 -13.2 8.3 77 -16.4 2.4 -93.3 -3.673
15:06 1013 29.91 842 24.86 -13.1 8.4 77 -16.4 2.5 -93.3 -3.673
15:07 1013 29.91 842 24.86 -13.1 8.5 77 -16.4 2.6 -93.3 -3.673
15:08 1013 29.91 842 24.86 -13 8.6 76 -16.3 2.6 -93.3 -3.673
15:09 1013 29.91 842 24.86 -12.9 8.8 76 -16.4 2.6 -93.3 -3.673
15:10 1013 29.91 842 24.86 -12.8 9.1 74 -16.4 2.5 -93.3 -3.673
15:11 1013 29.91 842 24.86 -12.6 9.2 74 -16.4 2.4 -93.3 -3.673
15:12 1013 29.91 842 24.86 -12.5 9.5 73 -16.3 2.6 -93.3 -3.673
15:13 1013 29.91 842 24.86 -12.5 9.6 73 -16.4 2.6 -93.3 -3.673
15:14 1013 29.91 842 24.86 -12.5 9.5 74 -16.3 2.7 -93.3 -3.673
15:15 1013 29.91 842 24.86 -12.4 9.6 73 -16.3 2.7 -93.3 -3.673
15:16 1013 29.91 842 24.86 -12.4 9.6 73 -16.4 2.6 -93.3 -3.673
15:17 1013 29.91 842 24.86 -12.4 9.8 73 -16.3 2.6 -93.3 -3.673
15:18 1013 29.91 842 24.86 -12.3 9.8 72 -16.3 2.6 -93.3 -3.673
15:19 1013 29.91 842 24.86 -12.4 9.8 72 -16.5 2.4 -93.3 -3.673
15:20 1013 29.91 842 24.86 -12.4 9.6 71 -16.6 2.1 -93.3 -3.673
15:21 1013 29.91 842 24.86 -12.6 9.4 71 -16.7 1.9 -93.3 -3.673
15:22 1013 29.91 842 24.86 -12.7 9.2 72 -16.7 1.9 -93.4 -3.677
15:23 1013 29.91 842 24.86 -12.7 9.1 72 -16.7 1.9 -93.4 -3.677
15:24 1013 29.91 842 24.86 -12.8 9 72 -16.8 1.8 -93.4 -3.677
15:25 1013 29.91 842 24.86 -12.8 8.9 73 -16.7 1.9 -93.4 -3.677
15:26 1013 29.91 842 24.86 -12.9 8.8 73 -16.7 1.9 -93.4 -3.677
15:27 1013 29.91 842 24.86 -12.9 8.8 73 -16.8 1.8 -93.4 -3.677
15:28 1013 29.91 842 24.86 -13 8.7 73 -16.8 1.7 -93.4 -3.677
15:29 1013 29.91 842 24.86 -13 8.6 73 -16.9 1.6 -93.4 -3.677
15:30 1013 29.91 842 24.86 -13 8.5 73 -16.9 1.5 -93.4 -3.677
15:31 1013 29.91 842 24.86 -13.1 8.5 73 -16.9 1.5 -93.4 -3.677
15:32 1013 29.91 842 24.86 -13.2 8.3 73 -17 1.5 -93.4 -3.677
15:33 1013 29.91 842 24.86 -13.2 8.2 73 -17 1.4 -93.4 -3.677
15:34 1013 29.91 842 24.86 -13.2 8.2 73 -17.1 1.3 -93.4 -3.677
15:35 1013 29.91 842 24.86 -13.3 8 73 -17.1 1.2 -93.4 -3.677
15:36 1013 29.91 842 24.86 -13.4 7.9 74 -17.1 1.2 -93.4 -3.677
15:37 1013 29.91 842 24.86 -13.5 7.8 74 -17.2 1 -93.4 -3.677
15:38 1013 29.91 842 24.86 -13.5 7.7 74 -17.2 1.1 -93.4 -3.677
15:39 1013 29.91 842 24.86 -13.5 7.7 75 -17.1 1.2 -93.4 -3.677
15:40 1013 29.91 842 24.86 -13.5 7.7 75 -17.1 1.2 -93.4 -3.677
15:41 1013 29.91 842 24.86 -13.4 7.9 74 -17.1 1.3 -93.4 -3.677
15:42 1013 29.91 842 24.86 -13.3 8.1 73 -17.1 1.2 -93.4 -3.677
15:43 1013 29.91 842 24.86 -13.2 8.2 72 -17.2 1.1 -93.4 -3.677
15:44 1013 29.91 842 24.86 -13.2 8.3 72 -17.2 1 -93.4 -3.677
15:45 1013 29.91 842 24.86 -13.1 8.4 72 -17.2 1.1 -93.4 -3.677
15:46 1013 29.91 842 24.86 -13.1 8.4 72 -17.2 1.1 -93.4 -3.677
15:47 1013 29.91 842 24.86 -13.2 8.3 72 -17.2 1 -93.4 -3.677
15:48 1013 29.91 842 24.86 -13.2 8.3 72 -17.2 1 -93.4 -3.677
15:49 1013 29.91 842 24.86 -13.1 8.3 72 -17.1 1.2 -93.4 -3.677
15:50 1013 29.91 842 24.86 -13.1 8.4 73 -17 1.3 -93.5 -3.681
15:51 1013 29.91 842 24.86 -13.2 8.3 73 -17.1 1.3 -93.5 -3.681
15:52 1013 29.91 842 24.86 -13.2 8.2 73 -17.1 1.3 -93.5 -3.681
15:53 1013 29.91 842 24.86 -13.3 8.1 73 -17.1 1.2 -93.5 -3.681
15:54 1013 29.91 842 24.86 -13.4 7.9 73 -17.2 1 -93.5 -3.681
15:55 1013 29.91 842 24.86 -13.4 7.8 73 -17.3 0.9 -93.5 -3.681
15:56 1013 29.91 842 24.86 -13.5 7.8 73 -17.3 0.8 -93.5 -3.681
15:57 1013 29.91 842 24.86 -13.5 7.7 73 -17.3 0.8 -93.5 -3.681
15:58 1013 29.91 842 24.86 -13.5 7.7 73 -17.4 0.8 -93.5 -3.681
15:59 1013 29.91 842 24.86 -13.6 7.6 74 -17.3 0.8 -93.5 -3.681
16:00 1013 29.91 842 24.86 -13.6 7.5 74 -17.3 0.9 -93.5 -3.681
16:01 1013 29.91 842 24.86 -13.7 7.4 74 -17.4 0.7 -93.5 -3.681
16:02 1013 29.91 842 24.86 -13.8 7.2 74 -17.4 0.7 -93.5 -3.681
16:03 1013 29.91 842 24.86 -13.8 7.1 74 -17.5 0.5 -93.5 -3.681
16:04 1013 29.91 842 24.86 -14 6.9 75 -17.5 0.5 -93.5 -3.681
16:05 1013 29.91 842 24.86 -14 6.8 75 -17.5 0.5 -93.5 -3.681
16:06 1013 29.91 842 24.86 -14.1 6.6 76 -17.5 0.5 -93.5 -3.681
16:07 1013 29.91 842 24.86 -14.1 6.6 76 -17.5 0.5 -93.5 -3.681
16:08 1013 29.91 842 24.86 -14.1 6.6 76 -17.4 0.6 -93.5 -3.681
16:09 1012 29.88 842 24.86 -14.2 6.5 76 -17.5 0.6 -93.5 -3.681
16:10 1012 29.88 842 24.86 -14.2 6.4 76 -17.6 0.3 -93.5 -3.681
16:11 1013 29.91 842 24.86 -14.3 6.2 76 -17.6 0.3 -93.5 -3.681
16:12 1013 29.91 842 24.86 -14.4 6.1 77 -17.6 0.3 -93.5 -3.681
16:13 1013 29.91 842 24.86 -14.4 6.2 78 -17.4 0.6 -93.5 -3.681
16:14 1013 29.91 842 24.86 -14.2 6.4 76 -17.6 0.4 -93.5 -3.681
16:15 1013 29.91 842 24.86 -14.3 6.3 76 -17.6 0.3 -93.5 -3.681
16:16 1013 29.91 842 24.86 -14.4 6.2 76 -17.6 0.2 -93.5 -3.681
16:17 1013 29.91 842 24.86 -14.5 6 77 -17.7 0.1 -93.5 -3.681
16:18 1013 29.91 842 24.86 -14.6 5.7 77 -17.9 -0.2 -93.5 -3.681
16:19 1013 29.91 842 24.86 -14.7 5.5 77 -17.9 -0.3 -93.5 -3.681
16:20 1013 29.91 842 24.86 -14.8 5.3 77 -18 -0.4 -93.5 -3.681
16:21 1013 29.91 842 24.86 -14.9 5.2 78 -17.9 -0.3 -93.5 -3.681
16:22 1013 29.91 842 24.86 -14.9 5.3 78 -17.9 -0.2 -93.5 -3.681
16:23 1012 29.88 842 24.86 -14.9 5.2 78 -17.9 -0.2 -93.6 -3.685
16:24 1013 29.91 842 24.86 -14.9 5.2 78 -17.9 -0.2 -93.6 -3.685
16:25 1013 29.91 842 24.86 -14.9 5.2 78 -17.9 -0.3 -93.6 -3.685
16:26 1013 29.91 842 24.86 -15 5 77 -18.2 -0.7 -93.6 -3.685
16:27 1012 29.88 842 24.86 -15.1 4.8 77 -18.3 -1 -93.6 -3.685
16:28 1012 29.88 842 24.86 -15.3 4.5 78 -18.3 -0.9 -93.6 -3.685
16:29 1012 29.88 842 24.86 -15.3 4.4 79 -18.2 -0.7 -93.6 -3.685
16:30 1013 29.91 842 24.86 -15.3 4.4 79 -18.2 -0.7 -93.6 -3.685
16:31 1012 29.88 842 24.86 -15.4 4.4 79 -18.2 -0.8 -93.6 -3.685
16:32 1013 29.91 842 24.86 -15.4 4.3 79 -18.2 -0.8 -93.6 -3.685
16:33 1013 29.91 842 24.86 -15.4 4.3 81 -18 -0.4 -93.6 -3.685
16:34 1013 29.91 842 24.86 -15.3 4.6 82 -17.7 0.1 -93.6 -3.685
16:35 1013 29.91 842 24.86 -15 4.9 82 -17.5 0.4 -93.7 -3.689
16:36 1013 29.91 842 24.86 -14.9 5.2 80 -17.7 0.2 -93.7 -3.689
16:37 1013 29.91 842 24.86 -14.9 5.2 80 -17.6 0.3 -93.6 -3.685
16:38 1013 29.91 842 24.86 -14.8 5.3 80 -17.6 0.4 -93.7 -3.689
16:39 1013 29.91 842 24.86 -14.8 5.4 80 -17.5 0.5 -93.7 -3.689
16:40 1013 29.91 842 24.86 -14.7 5.5 80 -17.4 0.7 -93.7 -3.689
16:41 1013 29.91 842 24.86 -14.7 5.5 80 -17.5 0.5 -93.7 -3.689
16:42 1013 29.91 842 24.86 -14.7 5.6 80 -17.4 0.6 -93.7 -3.689
16:43 1013 29.91 842 24.86 -14.7 5.5 78 -17.7 0.2 -93.7 -3.689
16:44 1013 29.91 842 24.86 -14.8 5.4 79 -17.7 0.2 -93.7 -3.689
16:45 1013 29.91 842 24.86 -14.9 5.3 79 -17.7 0.2 -93.7 -3.689
16:46 1013 29.91 842 24.86 -14.8 5.3 79 -17.7 0.2 -93.7 -3.689
16:47 1013 29.91 842 24.86 -14.8 5.3 80 -17.6 0.3 -93.7 -3.689
16:48 1013 29.91 842 24.86 -14.8 5.4 79 -17.7 0.2 -93.7 -3.689
16:49 1013 29.91 842 24.86 -14.8 5.3 78 -17.8 -0 -93.7 -3.689
16:50 1013 29.91 842 24.86 -14.9 5.2 80 -17.6 0.3 -93.7 -3.689
16:51 1013 29.91 842 24.86 -14.9 5.1 81 -17.5 0.5 -93.7 -3.689
16:52 1013 29.91 842 24.86 -14.9 5.3 81 -17.4 0.6 -93.7 -3.689
16:53 1013 29.91 842 24.86 -14.7 5.5 80 -17.4 0.7 -93.7 -3.689
16:54 1013 29.91 842 24.86 -14.7 5.6 80 -17.4 0.7 -93.7 -3.689
16:55 1013 29.91 842 24.86 -14.6 5.7 80 -17.4 0.7 -93.7 -3.689
16:56 1013 29.91 842 24.86 -14.6 5.8 79 -17.4 0.7 -93.7 -3.689
16:57 1013 29.91 842 24.86 -14.6 5.7 80 -17.4 0.7 -93.7 -3.689
16:58 1013 29.91 842 24.86 -14.6 5.7 79 -17.5 0.5 -93.7 -3.689
16:59 1013 29.91 842 24.86 -14.7 5.6 79 -17.5 0.5 -93.7 -3.689
17:00 1013 29.91 842 24.86 -14.7 5.5 79 -17.6 0.3 -93.7 -3.689
17:01 1013 29.91 842 24.86 -14.8 5.4 78 -17.7 0.1 -93.7 -3.689
17:02 1013 29.91 842 24.86 -14.9 5.1 80 -17.7 0.2 -93.7 -3.689
17:03 1013 29.91 842 24.86 -15 5.1 80 -17.6 0.2 -93.7 -3.689
17:04 1013 29.91 842 24.86 -15 5 80 -17.8 -0 -93.7 -3.689
17:05 1013 29.91 842 24.86 -15.1 4.8 80 -17.8 -0 -93.7 -3.689
17:06 1013 29.91 842 24.86 -15.2 4.6 81 -17.8 -0.1 -93.7 -3.689
17:07 1013 29.91 842 24.86 -15.3 4.5 80 -17.9 -0.3 -93.8 -3.693
17:08 1013 29.91 842 24.86 -15.4 4.3 80 -18.2 -0.7 -93.7 -3.689
17:09 1013 29.91 842 24.86 -15.6 4 80 -18.3 -1 -93.7 -3.689
17:10 1013 29.91 842 24.86 -15.7 3.8 81 -18.3 -1 -93.7 -3.689
17:11 1013 29.91 842 24.86 -15.8 3.6 81 -18.3 -0.9 -93.8 -3.693
17:12 1013 29.91 842 24.86 -15.8 3.5 82 -18.2 -0.7 -93.8 -3.693
17:13 1013 29.91 842 24.86 -15.9 3.5 82 -18.3 -1 -93.8 -3.693
17:14 1013 29.91 842 24.86 -15.9 3.3 82 -18.4 -1.1 -93.8 -3.693
17:15 1013 29.91 842 24.86 -16 3.3 82 -18.4 -1.1 -93.8 -3.693
17:16 1013 29.91 842 24.86 -15.9 3.4 83 -18.2 -0.8 -93.8 -3.693
17:17 1013 29.91 842 24.86 -15.9 3.4 82 -18.3 -0.9 -93.8 -3.693
17:18 1013 29.91 842 24.86 -15.9 3.5 82 -18.2 -0.8 -93.8 -3.693
17:19 1013 29.91 842 24.86 -15.8 3.5 83 -18.1 -0.6 -93.8 -3.693
17:20 1013 29.91 842 24.86 -15.7 3.7 83 -18 -0.4 -93.8 -3.693
17:21 1013 29.91 842 24.86 -15.7 3.8 83 -18 -0.4 -93.8 -3.693
17:22 1013 29.91 842 24.86 -15.6 3.9 82 -18 -0.4 -93.8 -3.693
17:23 1013 29.91 842 24.86 -15.6 4 82 -18 -0.3 -93.8 -3.693
17:24 1013 29.91 842 24.86 -15.6 4 82 -18 -0.3 -93.8 -3.693
17:25 1013 29.91 842 24.86 -15.5 4 82 -17.9 -0.3 -93.8 -3.693
17:26 1013 29.91 842 24.86 -15.5 4.1 83 -17.8 -0.1 -93.8 -3.693
17:27 1013 29.91 842 24.86 -15.4 4.2 82 -17.8 -0.1 -93.8 -3.693
17:28 1013 29.91 842 24.86 -15.5 4.2 82 -17.8 -0.1 -93.8 -3.693
17:29 1013 29.91 842 24.86 -15.4 4.2 82 -17.8 -0.1 -93.8 -3.693
17:30 1013 29.91 842 24.86 -15.4 4.3 82 -17.8 0 -93.8 -3.693
17:31 1013 29.91 842 24.86 -15.4 4.3 82 -17.8 -0 -93.8 -3.693
17:32 1013 29.91 842 24.86 -15.4 4.3 82 -17.8 0 -93.8 -3.693
17:33 1013 29.91 842 24.86 -15.4 4.2 82 -17.8 0 -93.8 -3.693
17:34 1013 29.91 842 24.86 -15.4 4.4 82 -17.7 0.1 -93.8 -3.693
17:35 1013 29.91 842 24.86 -15.4 4.4 82 -17.7 0.1 -93.8 -3.693
17:36 1013 29.91 842 24.86 -15.4 4.4 82 -17.8 -0 -93.8 -3.693
17:37 1013 29.91 842 24.86 -15.4 4.3 82 -17.8 0 -93.8 -3.693
17:38 1013 29.91 842 24.86 -15.4 4.3 83 -17.7 0.1 -93.8 -3.693
17:39 1013 29.91 842 24.86 -15.4 4.4 83 -17.6 0.3 -93.8 -3.693
17:40 1013 29.91 842 24.86 -15.3 4.5 83 -17.5 0.4 -93.8 -3.693
17:41 1013 29.91 842 24.86 -15.3 4.5 83 -17.6 0.3 -93.8 -3.693
17:42 1013 29.91 842 24.86 -15.3 4.5 82 -17.6 0.3 -93.8 -3.693
17:43 1013 29.91 842 24.86 -15.3 4.5 83 -17.6 0.3 -93.8 -3.693
17:44 1013 29.91 842 24.86 -15.2 4.6 83 -17.6 0.4 -93.8 -3.693
17:45 1013 29.91 842 24.86 -15.2 4.6 83 -17.5 0.4 -93.8 -3.693
17:46 1013 29.91 842 24.86 -15.2 4.6 82 -17.6 0.3 -93.8 -3.693
17:47 1013 29.91 842 24.86 -15.3 4.6 83 -17.5 0.5 -93.8 -3.693
17:48 1013 29.91 842 24.86 -15.2 4.7 83 -17.4 0.7 -93.8 -3.693
17:49 1013 29.91 842 24.86 -15 5 83 -17.3 0.9 -93.8 -3.693
17:50 1013 29.91 842 24.86 -15 5.1 82 -17.3 0.8 -93.8 -3.693
17:51 1013 29.91 842 24.86 -14.9 5.1 83 -17.2 1 -93.8 -3.693
17:52 1013 29.91 842 24.86 -14.9 5.2 83 -17.1 1.2 -93.8 -3.693
17:53 1013 29.91 842 24.86 -14.8 5.4 84 -17 1.4 -93.8 -3.693
17:54 1013 29.91 842 24.86 -14.7 5.6 84 -16.9 1.6 -93.8 -3.693
17:55 1013 29.91 842 24.86 -14.6 5.8 83 -16.8 1.7 -93.8 -3.693
17:56 1013 29.91 842 24.86 -14.5 5.9 84 -16.7 2 -93.8 -3.693
17:57 1013 29.91 842 24.86 -14.3 6.2 83 -16.6 2.2 -93.8 -3.693
17:58 1013 29.91 842 24.86 -14.2 6.4 83 -16.5 2.3 -93.8 -3.693
17:59 1013 29.91 842 24.86 -14.1 6.6 82 -16.5 2.3 -93.8 -3.693
18:00 1013 29.91 842 24.86 -14.1 6.7 82 -16.5 2.2 -93.8 -3.693
18:01 1013 29.91 842 24.86 -14.1 6.6 82 -16.6 2.2 -93.8 -3.693
18:02 1013 29.91 842 24.86 -14.1 6.6 82 -16.5 2.2 -93.8 -3.693
18:03 1013 29.91 842 24.86 -14.1 6.5 82 -16.5 2.3 -93.8 -3.693
18:04 1013 29.91 842 24.86 -14.1 6.6 82 -16.5 2.2 -93.8 -3.693
18:05 1013 29.91 842 24.86 -14.2 6.5 82 -16.5 2.3 -93.8 -3.693
18:06 1013 29.91 842 24.86 -14.2 6.5 82 -16.6 2.2 -93.8 -3.693
18:07 1013 29.91 842 24.86 -14.2 6.5 82 -16.6 2.2 -93.8 -3.693
18:08 1013 29.91 842 24.86 -14.2 6.5 82 -16.6 2.2 -93.8 -3.693
18:09 1013 29.91 842 24.86 -14.2 6.5 82 -16.6 2.1 -93.8 -3.693
18:10 1013 29.91 842 24.86 -14.2 6.5 82 -16.6 2.1 -93.8 -3.693
18:11 1013 29.91 842 24.86 -14.1 6.5 82 -16.6 2.1 -93.8 -3.693
18:12 1013 29.91 842 24.86 -14.1 6.6 82 -16.6 2.1 -93.8 -3.693
18:13 1013 29.91 842 24.86 -14.1 6.6 82 -16.6 2.1 -93.8 -3.693
18:14 1013 29.91 842 24.86 -14 6.7 82 -16.5 2.3 -93.8 -3.693
18:15 1013 29.91 842 24.86 -14.1 6.7 82 -16.6 2.2 -93.8 -3.693
18:16 1013 29.91 842 24.86 -14.1 6.7 82 -16.5 2.2 -93.8 -3.693
18:17 1013 29.91 842 24.86 -14.1 6.7 82 -16.5 2.3 -93.8 -3.693
18:18 1013 29.91 842 24.86 -14.1 6.6 82 -16.5 2.2 -93.8 -3.693
18:19 1013 29.91 842 24.86 -14.1 6.6 82 -16.5 2.3 -93.8 -3.693
18:20 1013 29.91 842 24.86 -14.1 6.6 82 -16.5 2.3 -93.8 -3.693
18:21 1013 29.91 842 24.86 -14 6.7 82 -16.4 2.4 -93.8 -3.693
18:22 1013 29.91 842 24.86 -14 6.8 83 -16.4 2.6 -93.8 -3.693
18:23 1013 29.91 842 24.86 -14 6.7 83 -16.3 2.7 -93.8 -3.693
18:24 1013 29.91 842 24.86 -14 6.8 83 -16.3 2.7 -93.8 -3.693
18:25 1013 29.91 842 24.86 -14 6.8 83 -16.3 2.7 -93.8 -3.693
18:26 1013 29.91 842 24.86 -14 6.8 82 -16.4 2.4 -93.8 -3.693
18:27 1013 29.91 842 24.86 -14 6.7 82 -16.4 2.4 -93.8 -3.693
18:28 1013 29.91 842 24.86 -14.1 6.7 83 -16.4 2.5 -93.8 -3.693
18:29 1013 29.91 842 24.86 -14 6.7 83 -16.4 2.5 -93.8 -3.693
18:30 1013 29.91 842 24.86 -14.1 6.7 83 -16.4 2.5 -93.8 -3.693
18:31 1013 29.91 842 24.86 -14.1 6.7 83 -16.4 2.5 -93.8 -3.693
18:32 1013 29.91 842 24.86 -14 6.8 83 -16.3 2.7 -93.8 -3.693
18:33 1013 29.91 842 24.86 -13.9 7 83 -16.2 2.8 -93.8 -3.693
18:34 1013 29.91 842 24.86 -13.8 7.1 83 -16.1 2.9 -93.8 -3.693
18:35 1013 29.91 842 24.86 -13.8 7.2 83 -16.1 3 -93.8 -3.693
18:36 1013 29.91 842 24.86 -13.7 7.3 83 -16.1 3.1 -93.8 -3.693
18:37 1013 29.91 842 24.86 -13.7 7.4 83 -16 3.1 -93.8 -3.693
18:38 1013 29.91 842 24.86 -13.6 7.5 83 -16 3.3 -93.8 -3.693
18:39 1013 29.91 842 24.86 -13.6 7.5 82 -16 3.2 -93.8 -3.693
18:40 1013 29.91 842 24.86 -13.6 7.5 81 -16.1 2.9 -93.8 -3.693
18:41 1013 29.91 842 24.86 -13.6 7.5 81 -16.2 2.9 -93.8 -3.693
18:42 1013 29.91 842 24.86 -13.7 7.4 82 -16.1 2.9 -93.8 -3.693
18:43 1013 29.91 842 24.86 -13.7 7.4 82 -16.1 3 -93.8 -3.693
18:44 1013 29.91 842 24.86 -13.7 7.4 82 -16.1 3.1 -93.8 -3.693
18:45 1013 29.91 842 24.86 -13.7 7.4 82 -16.1 3 -93.8 -3.693
18:46 1013 29.91 842 24.86 -13.6 7.4 82 -16.1 3 -93.8 -3.693
18:47 1013 29.91 842 24.86 -13.7 7.4 82 -16.1 3 -93.8 -3.693
18:48 1013 29.91 842 24.86 -13.6 7.4 82 -16.1 3 -93.8 -3.693
18:49 1013 29.91 842 24.86 -13.6 7.5 82 -16 3.1 -93.8 -3.693
18:50 1013 29.91 842 24.86 -13.6 7.6 82 -16 3.2 -93.8 -3.693
18:51 1013 29.91 842 24.86 -13.5 7.7 82 -15.9 3.3 -93.8 -3.693
18:52 1013 29.91 842 24.86 -13.5 7.7 82 -15.9 3.4 -93.8 -3.693
18:53 1013 29.91 842 24.86 -13.5 7.7 83 -15.9 3.5 -93.8 -3.693
18:54 1013 29.91 842 24.86 -13.4 7.8 82 -15.9 3.4 -93.8 -3.693
18:55 1013 29.91 842 24.86 -13.5 7.7 82 -15.9 3.3 -93.8 -3.693
18:56 1013 29.91 842 24.86 -13.5 7.7 82 -15.9 3.4 -93.8 -3.693
18:57 1013 29.91 842 24.86 -13.4 7.8 82 -15.8 3.5 -93.8 -3.693
18:58 1013 29.91 842 24.86 -13.4 7.8 82 -15.8 3.5 -93.8 -3.693
18:59 1013 29.91 842 24.86 -13.4 8 82 -15.8 3.5 -93.8 -3.693
19:00 1013 29.91 842 24.86 -13.3 8 82 -15.8 3.5 -93.8 -3.693
19:01 1013 29.91 842 24.86 -13.3 8 82 -15.8 3.5 -93.8 -3.693
19:02 1013 29.91 842 24.86 -13.4 8 82 -15.9 3.4 -93.8 -3.693
19:03 1013 29.91 842 24.86 -13.4 7.9 82 -15.9 3.4 -93.8 -3.693
19:04 1013 29.91 842 24.86 -13.4 7.9 82 -15.9 3.4 -93.8 -3.693
19:05 1013 29.91 842 24.86 -13.4 7.9 82 -15.9 3.4 -93.8 -3.693
19:06 1013 29.91 842 24.86 -13.4 7.9 82 -15.8 3.5 -93.8 -3.693
19:07 1013 29.91 842 24.86 -13.4 7.9 82 -15.8 3.5 -93.8 -3.693
19:08 1013 29.91 842 24.86 -13.4 7.9 82 -15.8 3.6 -93.8 -3.693
19:09 1013 29.91 842 24.86 -13.4 7.9 82 -15.8 3.6 -93.8 -3.693
19:10 1013 29.91 842 24.86 -13.4 8 83 -15.7 3.7 -93.8 -3.693
19:11 1013 29.91 842 24.86 -13.4 7.9 83 -15.7 3.7 -93.8 -3.693
19:12 1013 29.91 842 24.86 -13.4 7.9 83 -15.7 3.7 -93.8 -3.693
19:13 1013 29.91 842 24.86 -13.4 8 83 -15.7 3.8 -93.8 -3.693
19:14 1013 29.91 842 24.86 -13.4 8 83 -15.7 3.7 -93.8 -3.693
19:15 1013 29.91 842 24.86 -13.4 7.9 82 -15.8 3.6 -93.8 -3.693
19:16 1013 29.91 842 24.86 -13.4 8 82 -15.7 3.7 -93.8 -3.693
19:17 1013 29.91 842 24.86 -13.4 7.9 82 -15.8 3.6 -93.8 -3.693
19:18 1013 29.91 842 24.86 -13.5 7.8 83 -15.8 3.5 -93.8 -3.693
19:19 1013 29.91 842 24.86 -13.5 7.8 82 -15.9 3.5 -93.8 -3.693
19:20 1013 29.91 842 24.86 -13.5 7.6 83 -15.9 3.4 -93.7 -3.689
19:21 1013 29.91 842 24.86 -13.6 7.6 83 -15.8 3.5 -93.7 -3.689
19:22 1013 29.91 842 24.86 -13.6 7.5 84 -15.8 3.5 -93.7 -3.689
19:23 1013 29.91 842 24.86 -13.6 7.5 84 -15.8 3.6 -93.7 -3.689
19:24 1013 29.91 842 24.86 -13.6 7.5 84 -15.8 3.6 -93.7 -3.689
19:25 1013 29.91 842 24.86 -13.6 7.5 84 -15.8 3.6 -93.7 -3.689
19:26 1013 29.91 842 24.86 -13.6 7.5 84 -15.8 3.6 -93.7 -3.689
19:27 1013 29.91 842 24.86 -13.6 7.5 84 -15.8 3.5 -93.7 -3.689
19:28 1013 29.91 842 24.86 -13.6 7.6 84 -15.8 3.6 -93.7 -3.689
19:29 1013 29.91 842 24.86 -13.6 7.6 84 -15.8 3.6 -93.7 -3.689
19:30 1013 29.91 842 24.86 -13.5 7.7 84 -15.7 3.7 -93.7 -3.689
19:31 1013 29.91 842 24.86 -13.5 7.7 84 -15.7 3.8 -93.7 -3.689
19:32 1013 29.91 842 24.86 -13.5 7.7 84 -15.7 3.8 -93.7 -3.689
19:33 1013 29.91 842 24.86 -13.6 7.5 82 -16 3.2 -93.7 -3.689
19:34 1013 29.91 842 24.86 -13.9 7.1 81 -16.5 2.3 -93.7 -3.689
19:35 1013 29.91 842 24.86 -14 6.7 83 -16.3 2.6 -93.7 -3.689
19:36 1013 29.91 842 24.86 -14.1 6.6 83 -16.4 2.5 -93.7 -3.689
19:37 1013 29.91 842 24.86 -14.3 6.3 83 -16.6 2.2 -93.7 -3.689
19:38 1013 29.91 842 24.86 -14.4 6.2 85 -16.3 2.6 -93.7 -3.689
19:39 1013 29.91 842 24.86 -14.2 6.4 87 -16 3.2 -93.7 -3.689
19:40 1013 29.91 842 24.86 -14.1 6.5 85 -16.1 3 -93.7 -3.689
19:41 1013 29.91 842 24.86 -14.3 6.3 83 -16.6 2.2 -93.7 -3.689
19:42 1013 29.91 842 24.86 -14.5 6 83 -16.7 2 -93.7 -3.689
19:43 1013 29.91 842 24.86 -14.5 5.8 83 -16.8 1.7 -93.7 -3.689
19:44 1013 29.91 842 24.86 -14.8 5.5 84 -16.9 1.5 -93.7 -3.689
19:45 1013 29.91 842 24.86 -14.8 5.4 86 -16.6 2.1 -93.7 -3.689
19:46 1013 29.91 842 24.86 -14.6 5.8 88 -16.2 2.9 -93.8 -3.693
19:47 1013 29.91 842 24.86 -14.4 6.2 86 -16.2 2.9 -93.8 -3.693
19:48 1013 29.91 842 24.86 -14.4 6 84 -16.6 2.2 -93.8 -3.693
19:49 1013 29.91 842 24.86 -14.4 6.1 86 -16.3 2.7 -93.8 -3.693
19:50 1013 29.91 842 24.86 -14.4 6.1 85 -16.4 2.5 -93.8 -3.693
19:51 1013 29.91 842 24.86 -14.4 6.1 85 -16.4 2.5 -93.8 -3.693
19:52 1013 29.91 842 24.86 -14.4 6.1 86 -16.3 2.7 -93.8 -3.693
19:53 1013 29.91 842 24.86 -14.5 6 83 -16.8 1.8 -93.8 -3.693
19:54 1013 29.91 842 24.86 -14.7 5.6 83 -17 1.3 -93.7 -3.689
19:55 1013 29.91 842 24.86 -14.8 5.3 85 -16.9 1.6 -93.7 -3.689
19:56 1013 29.91 842 24.86 -14.9 5.2 85 -16.8 1.7 -93.8 -3.693
19:57 1013 29.91 842 24.86 -14.9 5.2 86 -16.7 2 -93.8 -3.693
19:58 1013 29.91 842 24.86 -14.9 5.3 87 -16.6 2.1 -93.8 -3.693
19:59 1013 29.91 842 24.86 -14.9 5.2 85 -16.8 1.8 -93.8 -3.693
20:00 1013 29.91 842 24.86 -15 5 85 -17 1.5 -93.8 -3.693
20:01 1013 29.91 842 24.86 -15.1 4.8 85 -17.1 1.3 -93.8 -3.693
20:02 1013 29.91 842 24.86 -15.2 4.7 85 -17.1 1.1 -93.8 -3.693
20:03 1013 29.91 842 24.86 -15.2 4.7 88 -16.8 1.8 -93.8 -3.693
20:04 1013 29.91 842 24.86 -15 5 88 -16.6 2 -93.8 -3.693
20:05 1013 29.91 842 24.86 -15 5.1 88 -16.5 2.3 -93.8 -3.693
20:06 1013 29.91 842 24.86 -14.9 5.1 86 -16.8 1.7 -93.8 -3.693
20:07 1013 29.91 842 24.86 -15.1 4.8 84 -17.3 0.9 -93.8 -3.693
20:08 1013 29.91 842 24.86 -15.2 4.6 87 -17 1.5 -93.8 -3.693
20:09 1013 29.91 842 24.86 -15.2 4.7 90 -16.5 2.3 -93.8 -3.693
20:10 1013 29.91 842 24.86 -14.9 5.2 90 -16.2 2.9 -93.8 -3.693
20:11 1013 29.91 842 24.86 -14.8 5.4 88 -16.3 2.6 -93.8 -3.693
20:12 1013 29.91 842 24.86 -14.9 5.2 84 -17 1.3 -93.8 -3.693
20:13 1013 29.91 842 24.86 -15.2 4.7 85 -17.2 1 -93.8 -3.693
20:14 1013 29.91 842 24.86 -15.3 4.5 86 -17.1 1.2 -93.8 -3.693
20:15 1013 29.91 842 24.86 -15.3 4.4 85 -17.3 0.9 -93.8 -3.693
20:16 1013 29.91 842 24.86 -15.4 4.3 87 -17.1 1.2 -93.8 -3.693
20:17 1013 29.91 842 24.86 -15.4 4.3 89 -16.8 1.8 -93.8 -3.693
20:18 1013 29.91 842 24.86 -15.3 4.5 89 -16.7 2 -93.8 -3.693
20:19 1013 29.91 842 24.86 -15.2 4.6 88 -16.7 1.9 -93.8 -3.693
20:20 1013 29.91 842 24.86 -15.4 4.4 85 -17.4 0.7 -93.8 -3.693
20:21 1013 29.91 842 24.86 -15.8 3.6 81 -18.4 -1.1 -93.8 -3.693
20:22 1013 29.91 842 24.86 -16.3 2.7 82 -18.7 -1.7 -93.8 -3.693
20:23 1013 29.91 842 24.86 -16.5 2.4 83 -18.7 -1.6 -93.8 -3.693
20:24 1013 29.91 842 24.86 -16.6 2.1 84 -18.7 -1.6 -93.8 -3.693
20:25 1013 29.91 842 24.86 -16.7 2 84 -18.8 -1.8 -93.8 -3.693
20:26 1013 29.91 842 24.86 -16.9 1.6 85 -18.9 -2 -93.8 -3.693
20:27 1013 29.91 842 24.86 -16.9 1.6 87 -18.5 -1.3 -93.9 -3.697
20:28 1013 29.91 842 24.86 -16.8 1.8 89 -18.1 -0.6 -93.9 -3.697
20:29 1013 29.91 842 24.86 -16.5 2.3 91 -17.7 0.1 -93.9 -3.697
20:30 1013 29.91 842 24.86 -16.4 2.6 90 -17.6 0.3 -93.9 -3.697
20:31 1013 29.91 842 24.86 -16.3 2.6 89 -17.8 0 -93.9 -3.697
20:32 1013 29.91 842 24.86 -16.4 2.4 88 -17.9 -0.3 -93.9 -3.697
20:33 1013 29.91 842 24.86 -16.3 2.6 90 -17.7 0.2 -93.9 -3.697
20:34 1013 29.91 842 24.86 -16.2 2.8 90 -17.6 0.3 -93.9 -3.697
20:35 1013 29.91 842 24.86 -16.4 2.6 87 -18 -0.5 -93.9 -3.697
20:36 1013 29.91 842 24.86 -16.4 2.5 89 -17.8 -0.1 -93.9 -3.697
20:37 1013 29.91 842 24.86 -16.3 2.6 90 -17.6 0.4 -93.9 -3.697
20:38 1013 29.91 842 24.86 -16.2 2.9 91 -17.3 0.8 -93.9 -3.697
20:39 1013 29.91 842 24.86 -16.1 3 87 -17.7 0.1 -93.9 -3.697
20:40 1013 29.91 842 24.86 -16.3 2.7 88 -17.9 -0.1 -93.9 -3.697
20:41 1013 29.91 842 24.86 -16.1 3 90 -17.5 0.5 -93.9 -3.697
20:42 1013 29.91 842 24.86 -16 3.2 90 -17.3 0.9 -93.9 -3.697
20:43 1013 29.91 842 24.86 -15.9 3.3 90 -17.2 1.1 -93.9 -3.697
20:44 1013 29.91 842 24.86 -15.8 3.6 91 -17 1.5 -93.9 -3.697
20:45 1013 29.91 842 24.86 -15.6 4 92 -16.7 2 -93.9 -3.697
20:46 1013 29.91 842 24.86 -15.4 4.4 92 -16.4 2.5 -93.9 -3.697
20:47 1013 29.91 842 24.86 -15.2 4.7 92 -16.2 2.8 -93.9 -3.697
20:48 1013 29.91 842 24.86 -15.1 4.9 91 -16.3 2.7 -93.9 -3.697
20:49 1013 29.91 842 24.86 -15.1 4.8 89 -16.5 2.4 -93.9 -3.697
20:50 1013 29.91 842 24.86 -15 4.9 90 -16.3 2.6 -93.9 -3.697
20:51 1013 29.91 842 24.86 -15 5.1 90 -16.2 2.8 -93.9 -3.697
20:52 1013 29.91 842 24.86 -14.9 5.2 91 -16.1 3 -93.9 -3.697
20:53 1013 29.91 842 24.86 -14.8 5.5 91 -15.9 3.3 -94 -3.701
20:54 1013 29.91 842 24.86 -14.7 5.6 90 -15.9 3.4 -93.9 -3.697
20:55 1013 29.91 842 24.86 -14.6 5.7 91 -15.8 3.5 -93.9 -3.697
20:56 1013 29.91 842 24.86 -14.6 5.7 89 -16.1 3.1 -93.9 -3.697
20:57 1013 29.91 842 24.86 -14.5 5.8 90 -15.9 3.4 -94 -3.701
20:58 1013 29.91 842 24.86 -14.4 6.1 90 -15.6 3.9 -94 -3.701
20:59 1013 29.91 842 24.86 -14.3 6.4 90 -15.6 4 -94 -3.701
21:00 1013 29.91 842 24.86 -14.2 6.4 90 -15.6 4 -94 -3.701
21:01 1013 29.91 842 24.86 -14.3 6.2 86 -16.2 2.8 -94 -3.701
21:02 1013 29.91 842 24.86 -14.6 5.7 86 -16.5 2.3 -93.9 -3.697
21:03 1013 29.91 842 24.86 -14.7 5.5 88 -16.2 2.8 -94 -3.701
21:04 1013 29.91 842 24.86 -14.7 5.6 89 -16.1 3.1 -94 -3.701
21:05 1013 29.91 842 24.86 -14.7 5.5 84 -16.9 1.6 -94 -3.701
21:06 1013 29.91 842 24.86 -15 5 88 -16.5 2.2 -94 -3.701
21:07 1013 29.91 842 24.86 -14.9 5.2 90 -16.2 2.9 -94 -3.701
21:08 1013 29.91 842 24.86 -14.8 5.4 89 -16.2 2.8 -94 -3.701
21:09 1013 29.91 842 24.86 -14.8 5.3 89 -16.2 2.8 -94 -3.701
21:10 1013 29.91 842 24.86 -14.8 5.5 89 -16.2 2.8 -94 -3.701
21:11 1013 29.91 842 24.86 -14.7 5.6 90 -15.9 3.3 -94 -3.701
21:12 1013 29.91 842 24.86 -14.4 6 90 -15.7 3.7 -94 -3.701
21:13 1013 29.91 842 24.86 -14.8 5.3 81 -17.4 0.6 -94 -3.701
21:14 1013 29.91 842 24.86 -15.3 4.5 85 -17.3 0.9 -94 -3.701
21:15 1013 29.91 842 24.86 -15.2 4.6 88 -16.7 1.9 -94 -3.701
21:16 1013 29.91 842 24.86 -15.4 4.3 86 -17.2 1 -94 -3.701
21:17 1013 29.91 842 24.86 -15.3 4.4 89 -16.7 2 -94 -3.701
21:18 1013 29.91 842 24.86 -15.6 3.9 86 -17.4 0.6 -94 -3.701
21:19 1013 29.91 842 24.86 -15.6 4 90 -16.8 1.8 -94 -3.701
21:20 1013 29.91 842 24.86 -15.4 4.3 91 -16.5 2.3 -94 -3.701
21:21 1013 29.91 842 24.86 -15.1 4.9 92 -16.1 3 -94 -3.701
21:22 1013 29.91 842 24.86 -14.9 5.1 89 -16.3 2.6 -94 -3.701
21:23 1013 29.91 842 24.86 -15.6 4 77 -18.7 -1.7 -94 -3.701
21:24 1013 29.91 842 24.86 -16.7 2 77 -19.8 -3.6 -94 -3.701
21:25 1013 29.91 842 24.86 -17.4 0.7 80 -20 -4.1 -94 -3.701
21:26 1013 29.91 842 24.86 -17.8 -0.1 82 -20.2 -4.4 -94 -3.701
21:27 1013 29.91 842 24.86 -17.6 0.3 89 -19.1 -2.3 -94 -3.701
21:28 1013 29.91 842 24.86 -17 1.3 92 -18.1 -0.5 -94 -3.701
21:29 1013 29.91 842 24.86 -16.9 1.7 91 -18 -0.4 -94 -3.701
21:30 1013 29.91 842 24.86 -16.9 1.7 90 -18.1 -0.6 -94.1 -3.705
21:31 1013 29.91 842 24.86 -16.9 1.7 90 -18.2 -0.7 -94.1 -3.705
21:32 1013 29.91 842 24.86 -16.7 1.9 92 -17.7 0.1 -94.1 -3.705
21:33 1013 29.91 842 24.86 -16.3 2.7 93 -17.2 1.1 -94.1 -3.705
21:34 1013 29.91 842 24.86 -16.2 2.9 91 -17.4 0.7 -94.1 -3.705
21:35 1013 29.91 842 24.86 -16.2 2.9 91 -17.4 0.7 -94.1 -3.705
21:36 1013 29.91 842 24.86 -15.9 3.3 91 -17.1 1.3 -94.1 -3.705
21:37 1013 29.91 842 24.86 -15.9 3.4 87 -17.6 0.3 -94.1 -3.705
21:38 1013 29.91 842 24.86 -16.3 2.7 88 -17.8 -0 -94.1 -3.705
21:39 1013 29.91 842 24.86 -16.2 2.9 91 -17.4 0.7 -94.1 -3.705
21:40 1013 29.91 842 24.86 -15.8 3.6 93 -16.7 1.9 -94.1 -3.705
21:41 1013 29.91 842 24.86 -15.5 4.1 93 -16.3 2.6 -94.1 -3.705
21:42 1013 29.91 842 24.86 -15.5 4.1 89 -17 1.4 -94.1 -3.705
21:43 1013 29.91 842 24.86 -15.9 3.5 88 -17.5 0.6 -94.1 -3.705
21:44 1013 29.91 842 24.86 -15.8 3.6 91 -17 1.4 -94.1 -3.705
21:45 1013 29.91 842 24.86 -15.9 3.5 87 -17.6 0.4 -94.1 -3.705
21:46 1013 29.91 843 24.89 -16.4 2.6 85 -18.3 -1 -94.1 -3.705
21:47 1013 29.91 842 24.86 -16.3 2.7 92 -17.3 0.8 -94.1 -3.705
21:48 1013 29.91 843 24.89 -15.7 3.8 94 -16.5 2.3 -94.1 -3.705
21:49 1013 29.91 843 24.89 -15.4 4.4 92 -16.4 2.5 -94.1 -3.705
21:50 1013 29.91 843 24.89 -15.5 4.1 87 -17.3 0.9 -94.1 -3.705
21:51 1013 29.91 843 24.89 -15.8 3.5 86 -17.6 0.3 -94.1 -3.705
21:52 1013 29.91 843 24.89 -15.9 3.3 87 -17.6 0.3 -94.1 -3.705
21:53 1013 29.91 843 24.89 -16 3.1 87 -17.7 0.2 -94.1 -3.705
21:54 1013 29.91 843 24.89 -16.1 3.1 88 -17.6 0.4 -94.1 -3.705
21:55 1013 29.91 843 24.89 -16 3.2 90 -17.3 0.8 -94.1 -3.705
21:56 1013 29.91 843 24.89 -15.9 3.4 89 -17.3 0.9 -94.1 -3.705
21:57 1013 29.91 843 24.89 -16 3.3 89 -17.4 0.6 -94.1 -3.705
21:58 1014 29.94 843 24.89 -16 3.2 88 -17.6 0.4 -94.1 -3.705
21:59 1014 29.94 843 24.89 -16.1 3.1 88 -17.6 0.4 -94.1 -3.705
22:00 1014 29.94 843 24.89 -16 3.1 89 -17.5 0.5 -94.1 -3.705
22:01 1013 29.91 843 24.89 -16 3.3 90 -17.3 0.9 -94.1 -3.705
22:02 1013 29.91 843 24.89 -15.8 3.5 90 -17.1 1.2 -94.1 -3.705
22:03 1013 29.91 843 24.89 -15.8 3.6 90 -17.1 1.2 -94.1 -3.705
22:04 1013 29.91 843 24.89 -15.8 3.6 89 -17.1 1.2 -94.1 -3.705
22:05 1013 29.91 843 24.89 -15.8 3.5 89 -17.2 1 -94.1 -3.705
22:06 1013 29.91 843 24.89 -15.7 3.7 90 -17.1 1.2 -94.1 -3.705
22:07 1013 29.91 843 24.89 -15.7 3.7 89 -17.1 1.2 -94.1 -3.705
22:08 1013 29.91 843 24.89 -15.6 3.9 91 -16.8 1.7 -94.1 -3.705
22:09 1013 29.91 843 24.89 -15.5 4.1 90 -16.7 1.9 -94.1 -3.705
22:10 1013 29.91 843 24.89 -15.5 4.1 88 -17.1 1.2 -94.1 -3.705
22:11 1013 29.91 843 24.89 -15.9 3.4 83 -18.2 -0.7 -94.1 -3.705
22:12 1013 29.91 843 24.89 -16.1 2.9 89 -17.6 0.3 -94.1 -3.705
22:13 1013 29.91 843 24.89 -15.8 3.5 91 -17 1.4 -94.1 -3.705
22:14 1013 29.91 843 24.89 -15.9 3.4 89 -17.4 0.7 -94.1 -3.705
22:15 1013 29.91 843 24.89 -15.9 3.5 90 -17.1 1.2 -94.1 -3.705
22:16 1013 29.91 843 24.89 -15.6 4 91 -16.7 2 -94.1 -3.705
22:17 1013 29.91 843 24.89 -15.4 4.2 91 -16.6 2.2 -94.1 -3.705
22:18 1013 29.91 843 24.89 -15.5 4.2 88 -17 1.4 -94.1 -3.705
22:19 1013 29.91 843 24.89 -15.6 3.9 88 -17.2 1.1 -94.1 -3.705
22:20 1013 29.91 843 24.89 -15.7 3.8 89 -17.1 1.1 -94.1 -3.705
22:21 1013 29.91 843 24.89 -15.8 3.5 86 -17.7 0.2 -94.1 -3.705
22:22 1013 29.91 843 24.89 -16.1 2.9 86 -18 -0.5 -94.1 -3.705
22:23 1014 29.94 843 24.89 -16.3 2.6 86 -18.2 -0.8 -94.1 -3.705
22:24 1014 29.94 843 24.89 -16.5 2.4 86 -18.2 -0.8 -94.1 -3.705
22:25 1014 29.94 843 24.89 -16.6 2.1 85 -18.5 -1.3 -94.1 -3.705
22:26 1013 29.91 843 24.89 -16.7 2 88 -18.3 -0.9 -94.1 -3.705
22:27 1013 29.91 843 24.89 -16.5 2.4 91 -17.7 0.2 -94.1 -3.705
22:28 1013 29.91 843 24.89 -16.1 3.1 92 -17.1 1.1 -94.1 -3.705
22:29 1013 29.91 843 24.89 -15.8 3.6 90 -17 1.3 -94.1 -3.705
22:30 1013 29.91 843 24.89 -15.8 3.5 86 -17.6 0.3 -94.1 -3.705
22:31 1014 29.94 843 24.89 -16.1 3 83 -18.3 -0.9 -94.1 -3.705
22:32 1014 29.94 843 24.89 -16.4 2.5 85 -18.4 -1.1 -94.1 -3.705
22:33 1014 29.94 843 24.89 -16.5 2.3 86 -18.4 -1 -94.1 -3.705
22:34 1014 29.94 843 24.89 -16.6 2.2 86 -18.4 -1.1 -94.1 -3.705
22:35 1013 29.91 843 24.89 -16.6 2.1 86 -18.4 -1.1 -94.1 -3.705
22:36 1013 29.91 843 24.89 -16.5 2.3 88 -18.1 -0.6 -94.1 -3.705
22:37 1013 29.91 843 24.89 -16.4 2.4 88 -18 -0.5 -94.1 -3.705
22:38 1013 29.91 843 24.89 -16.3 2.7 87 -17.9 -0.3 -94.1 -3.705
22:39 1013 29.91 843 24.89 -16.3 2.7 86 -18.1 -0.6 -94.1 -3.705
22:40 1013 29.91 843 24.89 -16.2 2.9 88 -17.7 0.1 -94.1 -3.705
22:41 1013 29.91 843 24.89 -16 3.2 87 -17.7 0.1 -94.1 -3.705
22:42 1013 29.91 843 24.89 -16 3.2 85 -18 -0.3 -94.1 -3.705
22:43 1013 29.91 843 24.89 -16.1 3.1 86 -17.9 -0.3 -94.1 -3.705
22:44 1014 29.94 843 24.89 -16.1 3.1 86 -17.9 -0.3 -94.1 -3.705
22:45 1014 29.94 843 24.89 -16.1 3 84 -18.2 -0.7 -94.1 -3.705
22:46 1013 29.91 843 24.89 -16.2 2.9 87 -17.9 -0.2 -94.1 -3.705
22:47 1013 29.91 843 24.89 -15.8 3.6 91 -17 1.4 -94.1 -3.705
22:48 1013 29.91 843 24.89 -15.4 4.3 90 -16.7 1.9 -94.1 -3.705
22:49 1013 29.91 843 24.89 -15.2 4.7 88 -16.8 1.8 -94.1 -3.705
22:50 1014 29.94 843 24.89 -15.2 4.7 87 -16.8 1.7 -94.1 -3.705
22:51 1014 29.94 843 24.89 -15.1 4.7 87 -16.9 1.6 -94.1 -3.705
22:52 1014 29.94 843 24.89 -15.1 4.9 88 -16.6 2.1 -94.1 -3.705
22:53 1013 29.91 843 24.89 -14.8 5.4 89 -16.3 2.7 -94.1 -3.705
22:54 1014 29.94 843 24.89 -14.7 5.5 87 -16.4 2.5 -94.1 -3.705
22:55 1014 29.94 843 24.89 -14.8 5.4 85 -16.8 1.8 -94.1 -3.705
22:56 1014 29.94 843 24.89 -14.9 5.2 86 -16.7 2 -94.1 -3.705
22:57 1014 29.94 843 24.89 -14.8 5.4 88 -16.3 2.6 -94.1 -3.705
22:58 1014 29.94 843 24.89 -14.6 5.7 88 -16.2 2.9 -94.1 -3.705
22:59 1014 29.94 843 24.89 -14.5 5.9 87 -16.3 2.7 -94.1 -3.705
23:00 1013 29.91 843 24.89 -14.5 6 88 -16.1 3.1 -94.1 -3.705
23:01 1013 29.91 843 24.89 -14.4 6.1 87 -16.1 2.9 -94 -3.701
23:02 1013 29.91 843 24.89 -14.5 5.9 84 -16.6 2 -94 -3.701
23:03 1014 29.94 843 24.89 -14.6 5.7 86 -16.4 2.4 -94 -3.701
23:04 1014 29.94 843 24.89 -14.6 5.7 86 -16.5 2.3 -94 -3.701
23:05 1014 29.94 843 24.89 -14.7 5.5 83 -17 1.5 -94 -3.701
23:06 1014 29.94 843 24.89 -15 5.1 83 -17.2 1 -94 -3.701
23:07 1014 29.94 843 24.89 -15.1 4.8 86 -17 1.4 -94 -3.701
23:08 1014 29.94 843 24.89 -15.1 4.8 84 -17.2 1 -94 -3.701
23:09 1014 29.94 843 24.89 -15 4.9 90 -16.3 2.6 -94 -3.701
23:10 1014 29.94 843 24.89 -14.6 5.7 90 -15.9 3.3 -94.1 -3.705
23:11 1014 29.94 843 24.89 -14.4 6.1 89 -15.8 3.5 -94.1 -3.705
23:12 1014 29.94 843 24.89 -14.3 6.3 88 -15.8 3.6 -94.1 -3.705
23:13 1014 29.94 843 24.89 -14.1 6.7 88 -15.7 3.8 -94.1 -3.705
23:14 1014 29.94 843 24.89 -13.9 6.9 88 -15.6 4 -94 -3.701
23:15 1014 29.94 843 24.89 -13.8 7.2 86 -15.6 3.9 -94 -3.701
23:16 1014 29.94 843 24.89 -13.7 7.3 83 -16 3.2 -94 -3.701
23:17 1014 29.94 843 24.89 -13.9 6.9 84 -16.1 3 -94 -3.701
23:18 1014 29.94 843 24.89 -14 6.8 85 -16 3.2 -94 -3.701
23:19 1014 29.94 843 24.89 -13.8 7.2 85 -15.8 3.5 -94 -3.701
23:20 1014 29.94 843 24.89 -13.8 7.1 80 -16.5 2.2 -94 -3.701
23:21 1014 29.94 843 24.89 -14.1 6.7 81 -16.7 2 -94 -3.701
23:22 1014 29.94 843 24.89 -14.3 6.4 81 -16.9 1.6 -94 -3.701
23:23 1014 29.94 843 24.89 -14.4 6.1 84 -16.6 2.1 -94 -3.701
23:24 1014 29.94 843 24.89 -14.3 6.2 86 -16.2 2.8 -94 -3.701
23:25 1014 29.94 843 24.89 -14.1 6.6 85 -16.1 3 -94 -3.701
23:26 1014 29.94 843 24.89 -13.9 7 85 -16 3.2 -94 -3.701
23:27 1014 29.94 843 24.89 -13.9 7 83 -16.2 2.8 -94 -3.701
23:28 1014 29.94 843 24.89 -14 6.8 81 -16.6 2.2 -94 -3.701
23:29 1014 29.94 843 24.89 -14.2 6.5 81 -16.7 1.9 -94 -3.701
23:30 1014 29.94 843 24.89 -14.3 6.4 84 -16.4 2.4 -94 -3.701
23:31 1014 29.94 843 24.89 -14.3 6.4 84 -16.4 2.4 -94 -3.701
23:32 1014 29.94 843 24.89 -14.1 6.7 87 -15.8 3.5 -94 -3.701
23:33 1014 29.94 843 24.89 -13.7 7.3 87 -15.5 4.1 -94 -3.701
23:34 1014 29.94 843 24.89 -13.5 7.8 86 -15.4 4.3 -94 -3.701
23:35 1014 29.94 843 24.89 -13.4 7.9 81 -16 3.3 -94 -3.701
23:36 1014 29.94 843 24.89 -13.4 7.9 86 -15.3 4.5 -94 -3.701
23:37 1014 29.94 843 24.89 -13.1 8.4 83 -15.3 4.4 -94 -3.701
23:38 1014 29.94 843 24.89 -13.1 8.4 83 -15.5 4.2 -94 -3.701
23:39 1014 29.94 843 24.89 -13 8.5 83 -15.3 4.5 -94 -3.701
23:40 1014 29.94 843 24.89 -13.2 8.3 74 -16.9 1.5 -93.9 -3.697
23:41 1014 29.94 843 24.89 -13.8 7.2 78 -16.9 1.6 -93.9 -3.697
23:42 1014 29.94 843 24.89 -14.1 6.6 82 -16.6 2.2 -94 -3.701
23:43 1014 29.94 843 24.89 -14.2 6.4 83 -16.4 2.4 -94 -3.701
23:44 1014 29.94 843 24.89 -14.3 6.4 84 -16.4 2.4 -94 -3.701
23:45 1014 29.94 843 24.89 -14.3 6.3 83 -16.5 2.3 -94 -3.701
23:46 1014 29.94 843 24.89 -14.3 6.3 82 -16.7 1.9 -93.9 -3.697
23:47 1014 29.94 843 24.89 -14.4 6 83 -16.8 1.8 -93.9 -3.697
23:48 1014 29.94 843 24.89 -14.5 5.8 82 -17 1.5 -94 -3.701
23:49 1014 29.94 843 24.89 -14.7 5.6 82 -17.1 1.2 -94 -3.701
23:50 1014 29.94 843 24.89 -14.8 5.3 82 -17.2 1 -94 -3.701
23:51 1014 29.94 843 24.89 -15 5.1 84 -17 1.3 -94 -3.701
23:52 1014 29.94 843 24.89 -15 5 85 -17 1.3 -94 -3.701
23:53 1014 29.94 843 24.89 -15 5 84 -17.1 1.2 -94 -3.701
23:54 1014 29.94 843 24.89 -15.1 4.8 84 -17.2 1.1 -94 -3.701
23:55 1014 29.94 843 24.89 -15.2 4.6 84 -17.3 0.9 -94 -3.701
23:56 1014 29.94 843 24.89 -15.3 4.6 86 -17.2 1.1 -94 -3.701
23:57 1014 29.94 843 24.89 -15.3 4.5 86 -17.1 1.2 -94 -3.701
23:58 1014 29.94 843 24.89 -15.2 4.6 87 -17 1.5 -94 -3.701
23:59 1014 29.94 843 24.89 -15.2 4.6 87 -17 1.5 -94 -3.701
24:00 1014 29.94 843 24.89 -15.2 4.6 86 -17.1 1.2 -94 -3.701